DLH797A VHHH-EDDF
Flight info
| Callsign | DLH797A |
|---|---|
| Flight time | N/A |
| Altitude | 34000 |
| Route | K0928S1035 BEKOL1D BEKOL A461 SHL W22 TEPID W24 OSNOV G586 QP B330 ELKAL W179 OMBON Y1 SADAN W186 KAMUD/K0885F340 L141 TISIB L163 SR N193 ARLIF N161 GASBI/N0464F340 N161 LEYLA N644 LAGAS DCT SARPI UM10 GOKPA UL746 ODERO DCT OPT DCT TEGRI DCT ARSIN DCT BARUG DCT SUBEN DCT AKINI T161 DEBHI DEBHI1B |
| Aircraft | A388/J-SADE2E3FGHIJ3J4J5M1RWXY/LB1D1 |
Departure
| Time | N/A |
|---|---|
| Airport | Hong Kong International Airport (VHHH) |
Arrival
| Time | 2026-04-19 03:26 |
|---|---|
| Airport | Frankfurt Main Airport (EDDF) |
| Time | Latitude | Longitude | Altitude | Speed | Heading |
|---|---|---|---|---|---|
| 2026-04-18 15:36 | 23.47422 | 113.44918 | 32976 ft | 444 kts | 311° |
| 2026-04-18 15:36 | 23.49644 | 113.42576 | 33266 ft | 445 kts | 311° |
| 2026-04-18 15:36 | 23.51878 | 113.40220 | 33523 ft | 448 kts | 310° |
| 2026-04-18 15:36 | 23.54115 | 113.37857 | 33801 ft | 449 kts | 310° |
| 2026-04-18 15:37 | 23.56355 | 113.35466 | 33982 ft | 453 kts | 310° |
| 2026-04-18 15:37 | 23.58615 | 113.33028 | 33959 ft | 462 kts | 310° |
| 2026-04-18 15:37 | 23.63254 | 113.27995 | 33954 ft | 477 kts | 308° |
| 2026-04-18 15:38 | 23.67271 | 113.22315 | 33954 ft | 467 kts | 298° |
| 2026-04-18 15:38 | 23.70185 | 113.16047 | 33950 ft | 466 kts | 291° |
| 2026-04-18 15:39 | 23.72846 | 113.09613 | 33950 ft | 465 kts | 291° |
| 2026-04-18 15:39 | 23.75790 | 113.03308 | 33949 ft | 471 kts | 302° |
| 2026-04-18 15:40 | 23.80452 | 112.98186 | 33942 ft | 483 kts | 320° |
| 2026-04-18 15:40 | 23.86581 | 112.95058 | 33955 ft | 497 kts | 337° |
| 2026-04-18 15:41 | 23.93220 | 112.92892 | 33959 ft | 497 kts | 337° |
| 2026-04-18 15:41 | 23.99823 | 112.90694 | 33960 ft | 495 kts | 337° |
| 2026-04-18 15:42 | 24.06366 | 112.88512 | 33964 ft | 494 kts | 337° |
| 2026-04-18 15:42 | 24.12942 | 112.86319 | 33967 ft | 494 kts | 337° |
| 2026-04-18 15:43 | 24.19496 | 112.84134 | 33971 ft | 491 kts | 338° |
| 2026-04-18 15:43 | 24.26043 | 112.81959 | 33969 ft | 491 kts | 338° |
| 2026-04-18 15:44 | 24.32622 | 112.79771 | 33977 ft | 493 kts | 338° |
| 2026-04-18 15:44 | 24.39110 | 112.77463 | 33982 ft | 486 kts | 331° |
| 2026-04-18 15:45 | 24.44571 | 112.73443 | 33983 ft | 471 kts | 312° |
| 2026-04-18 15:45 | 24.48422 | 112.67721 | 33984 ft | 464 kts | 295° |
| 2026-04-18 15:46 | 24.50313 | 112.60977 | 33988 ft | 465 kts | 278° |
| 2026-04-18 15:46 | 24.50984 | 112.53898 | 33986 ft | 466 kts | 277° |
| 2026-04-18 15:47 | 24.51682 | 112.46823 | 33964 ft | 465 kts | 278° |
| 2026-04-18 15:47 | 24.52372 | 112.39743 | 33980 ft | 466 kts | 278° |
| 2026-04-18 15:48 | 24.53050 | 112.32675 | 33982 ft | 467 kts | 278° |
| 2026-04-18 15:48 | 24.53726 | 112.25600 | 33988 ft | 466 kts | 278° |
| 2026-04-18 15:49 | 24.54394 | 112.18570 | 33985 ft | 465 kts | 278° |
| 2026-04-18 15:49 | 24.55066 | 112.11484 | 33985 ft | 466 kts | 278° |
| 2026-04-18 15:50 | 24.55735 | 112.04393 | 33984 ft | 466 kts | 278° |
| 2026-04-18 15:50 | 24.56400 | 111.97297 | 33988 ft | 467 kts | 278° |
| 2026-04-18 15:51 | 24.57061 | 111.90199 | 33981 ft | 466 kts | 278° |
| 2026-04-18 15:51 | 24.57718 | 111.83111 | 33980 ft | 467 kts | 278° |
| 2026-04-18 15:52 | 24.58371 | 111.76039 | 33977 ft | 468 kts | 278° |
| 2026-04-18 15:52 | 24.59023 | 111.68941 | 33983 ft | 468 kts | 278° |
| 2026-04-18 15:53 | 24.59673 | 111.61829 | 33978 ft | 468 kts | 278° |
| 2026-04-18 15:53 | 24.60318 | 111.54718 | 33967 ft | 467 kts | 278° |
| 2026-04-18 15:54 | 24.60959 | 111.47632 | 33971 ft | 469 kts | 278° |
| 2026-04-18 15:54 | 24.61598 | 111.40497 | 33971 ft | 469 kts | 278° |
| 2026-04-18 15:55 | 24.62237 | 111.33367 | 33969 ft | 469 kts | 278° |
| 2026-04-18 15:55 | 24.62872 | 111.26207 | 33971 ft | 471 kts | 278° |
| 2026-04-18 15:56 | 24.63491 | 111.19029 | 33968 ft | 471 kts | 277° |
| 2026-04-18 15:56 | 24.64107 | 111.11854 | 33970 ft | 471 kts | 277° |
| 2026-04-18 15:57 | 24.64717 | 111.04730 | 33966 ft | 472 kts | 277° |
| 2026-04-18 15:57 | 24.65328 | 110.97552 | 33969 ft | 472 kts | 277° |
| 2026-04-18 15:58 | 24.65937 | 110.90349 | 33967 ft | 473 kts | 277° |
| 2026-04-18 15:58 | 24.66455 | 110.84362 | 33962 ft | 473 kts | 279° |
| 2026-04-18 15:59 | 24.68450 | 110.77538 | 33967 ft | 471 kts | 298° |
| 2026-04-18 15:59 | 24.70927 | 110.73619 | 33963 ft | 473 kts | 310° |
| 2026-04-18 15:59 | 24.72493 | 110.71878 | 33969 ft | 474 kts | 315° |
| 2026-04-18 16:00 | 24.77276 | 110.66885 | 33964 ft | 474 kts | 314° |
| 2026-04-18 16:00 | 24.82041 | 110.61857 | 33961 ft | 475 kts | 314° |
| 2026-04-18 16:01 | 24.86788 | 110.56844 | 33959 ft | 475 kts | 314° |
| 2026-04-18 16:01 | 24.91552 | 110.51814 | 33963 ft | 473 kts | 314° |
| 2026-04-18 16:02 | 24.96298 | 110.46798 | 33965 ft | 473 kts | 314° |
| 2026-04-18 16:02 | 25.01021 | 110.41799 | 33963 ft | 474 kts | 314° |
| 2026-04-18 16:03 | 25.05785 | 110.36766 | 33968 ft | 472 kts | 314° |
| 2026-04-18 16:03 | 25.10535 | 110.31751 | 33971 ft | 471 kts | 314° |
| 2026-04-18 16:04 | 25.15252 | 110.26761 | 33978 ft | 473 kts | 314° |
| 2026-04-18 16:04 | 25.19998 | 110.21734 | 33981 ft | 472 kts | 314° |
| 2026-04-18 16:05 | 25.24764 | 110.16722 | 33990 ft | 473 kts | 314° |
| 2026-04-18 16:05 | 25.29537 | 110.11737 | 33991 ft | 472 kts | 314° |
| 2026-04-18 16:06 | 25.34310 | 110.06737 | 33991 ft | 472 kts | 314° |
| 2026-04-18 16:06 | 25.39054 | 110.01757 | 33972 ft | 472 kts | 314° |
| 2026-04-18 16:07 | 25.43824 | 109.96744 | 33985 ft | 474 kts | 314° |
| 2026-04-18 16:07 | 25.48597 | 109.91722 | 33992 ft | 473 kts | 314° |
| 2026-04-18 16:08 | 25.53359 | 109.86706 | 33974 ft | 471 kts | 314° |
| 2026-04-18 16:08 | 25.58114 | 109.81691 | 33969 ft | 472 kts | 314° |
| 2026-04-18 16:09 | 25.62845 | 109.76695 | 33980 ft | 473 kts | 314° |
| 2026-04-18 16:09 | 25.67626 | 109.71642 | 33983 ft | 474 kts | 314° |
| 2026-04-18 16:10 | 25.72407 | 109.66583 | 33973 ft | 474 kts | 314° |
| 2026-04-18 16:10 | 25.76654 | 109.61057 | 33974 ft | 469 kts | 301° |
| 2026-04-18 16:11 | 25.79388 | 109.54514 | 33973 ft | 468 kts | 287° |
| 2026-04-18 16:11 | 25.81180 | 109.47637 | 33982 ft | 467 kts | 286° |
| 2026-04-18 16:12 | 25.83020 | 109.40700 | 33977 ft | 468 kts | 286° |
| 2026-04-18 16:12 | 25.84844 | 109.33772 | 33974 ft | 468 kts | 286° |
| 2026-04-18 16:13 | 25.86667 | 109.26822 | 33982 ft | 469 kts | 286° |
| 2026-04-18 16:13 | 25.88487 | 109.19867 | 33986 ft | 467 kts | 286° |
| 2026-04-18 16:14 | 25.90300 | 109.12919 | 33985 ft | 470 kts | 286° |
| 2026-04-18 16:14 | 25.92116 | 109.05944 | 33985 ft | 470 kts | 286° |
| 2026-04-18 16:15 | 25.94869 | 108.95537 | 33992 ft | 470 kts | 286° |
| 2026-04-18 16:16 | 25.96727 | 108.88564 | 33996 ft | 470 kts | 286° |
| 2026-04-18 16:16 | 25.98574 | 108.81602 | 34000 ft | 470 kts | 286° |
| 2026-04-18 16:17 | 26.00424 | 108.74607 | 34004 ft | 471 kts | 286° |
| 2026-04-18 16:17 | 26.02273 | 108.67628 | 34008 ft | 471 kts | 286° |
| 2026-04-18 16:18 | 26.04124 | 108.60677 | 34005 ft | 471 kts | 286° |
| 2026-04-18 16:18 | 26.05981 | 108.53680 | 34008 ft | 472 kts | 286° |
| 2026-04-18 16:19 | 26.07835 | 108.46674 | 34008 ft | 472 kts | 286° |
| 2026-04-18 16:19 | 26.09793 | 108.39694 | 34020 ft | 472 kts | 290° |
| 2026-04-18 16:20 | 26.12570 | 108.33057 | 34016 ft | 473 kts | 295° |
| 2026-04-18 16:20 | 26.15435 | 108.26440 | 34020 ft | 473 kts | 294° |
| 2026-04-18 16:21 | 26.18282 | 108.19840 | 34026 ft | 473 kts | 294° |
| 2026-04-18 16:21 | 26.21134 | 108.13231 | 34025 ft | 473 kts | 294° |
| 2026-04-18 16:22 | 26.23987 | 108.06611 | 34029 ft | 474 kts | 294° |
| 2026-04-18 16:22 | 26.26817 | 108.00033 | 34030 ft | 473 kts | 294° |
| 2026-04-18 16:23 | 26.29659 | 107.93417 | 34031 ft | 473 kts | 294° |
| 2026-04-18 16:23 | 26.33929 | 107.83458 | 34027 ft | 473 kts | 294° |
| 2026-04-18 16:24 | 26.36763 | 107.76838 | 34026 ft | 473 kts | 294° |
| 2026-04-18 16:24 | 26.39574 | 107.70259 | 34028 ft | 473 kts | 294° |
| 2026-04-18 16:25 | 26.42397 | 107.63640 | 34030 ft | 472 kts | 294° |
| 2026-04-18 16:25 | 26.45217 | 107.57019 | 34035 ft | 472 kts | 294° |
| 2026-04-18 16:26 | 26.48038 | 107.50387 | 34036 ft | 473 kts | 294° |
| 2026-04-18 16:26 | 26.50846 | 107.43759 | 34035 ft | 471 kts | 294° |
| 2026-04-18 16:27 | 26.53645 | 107.37142 | 34039 ft | 472 kts | 294° |
| 2026-04-18 16:27 | 26.56450 | 107.30508 | 34042 ft | 473 kts | 294° |
| 2026-04-18 16:28 | 26.59242 | 107.23913 | 34043 ft | 473 kts | 294° |
| 2026-04-18 16:28 | 26.62055 | 107.17258 | 34044 ft | 472 kts | 294° |
| 2026-04-18 16:29 | 26.64863 | 107.10615 | 34044 ft | 472 kts | 294° |
| 2026-04-18 16:29 | 26.67662 | 107.04037 | 34045 ft | 472 kts | 294° |
| 2026-04-18 16:30 | 26.70488 | 106.97382 | 34044 ft | 471 kts | 294° |
| 2026-04-18 16:30 | 26.73301 | 106.90743 | 34045 ft | 471 kts | 294° |
| 2026-04-18 16:31 | 26.76106 | 106.84110 | 34045 ft | 471 kts | 294° |
| 2026-04-18 16:31 | 26.79595 | 106.77878 | 34041 ft | 475 kts | 306° |
| 2026-04-18 16:32 | 26.84220 | 106.72603 | 34034 ft | 481 kts | 316° |
| 2026-04-18 16:32 | 26.89265 | 106.67690 | 34011 ft | 481 kts | 315° |
| 2026-04-18 16:33 | 26.94291 | 106.62751 | 34014 ft | 479 kts | 315° |
| 2026-04-18 16:33 | 26.99309 | 106.57822 | 34011 ft | 479 kts | 315° |
| 2026-04-18 16:34 | 27.04329 | 106.52890 | 34018 ft | 479 kts | 315° |
| 2026-04-18 16:34 | 27.09337 | 106.47965 | 34008 ft | 477 kts | 315° |
| 2026-04-18 16:35 | 27.14341 | 106.43036 | 34002 ft | 479 kts | 315° |
| 2026-04-18 16:35 | 27.19309 | 106.38138 | 34000 ft | 479 kts | 315° |
| 2026-04-18 16:36 | 27.24329 | 106.33227 | 33992 ft | 478 kts | 315° |
| 2026-04-18 16:36 | 27.29367 | 106.28339 | 33990 ft | 477 kts | 315° |
| 2026-04-18 16:37 | 27.34395 | 106.23445 | 33985 ft | 478 kts | 315° |
| 2026-04-18 16:37 | 27.39413 | 106.18549 | 33982 ft | 477 kts | 315° |
| 2026-04-18 16:38 | 27.44424 | 106.13654 | 33973 ft | 476 kts | 315° |
| 2026-04-18 16:38 | 27.49428 | 106.08759 | 33970 ft | 476 kts | 315° |
| 2026-04-18 16:39 | 27.54405 | 106.03884 | 33962 ft | 477 kts | 315° |
| 2026-04-18 16:39 | 27.59402 | 105.98985 | 33957 ft | 476 kts | 315° |
| 2026-04-18 16:40 | 27.64398 | 105.94079 | 33951 ft | 475 kts | 315° |
| 2026-04-18 16:40 | 27.69359 | 105.89152 | 33937 ft | 473 kts | 311° |
| 2026-04-18 16:41 | 27.73286 | 105.83311 | 33939 ft | 465 kts | 296° |
| 2026-04-18 16:41 | 27.74643 | 105.80003 | 33936 ft | 463 kts | 289° |
| 2026-04-18 16:42 | 27.76574 | 105.73145 | 33930 ft | 462 kts | 286° |
| 2026-04-18 16:42 | 27.78521 | 105.66219 | 33934 ft | 463 kts | 286° |
| 2026-04-18 16:43 | 27.80639 | 105.59373 | 33924 ft | 464 kts | 292° |
| 2026-04-18 16:43 | 27.83260 | 105.52682 | 33925 ft | 466 kts | 291° |
| 2026-04-18 16:44 | 27.85836 | 105.46012 | 33916 ft | 466 kts | 291° |
| 2026-04-18 16:44 | 27.88444 | 105.39259 | 33911 ft | 465 kts | 292° |
| 2026-04-18 16:45 | 27.91335 | 105.32736 | 33912 ft | 467 kts | 294° |
| 2026-04-18 16:45 | 27.94268 | 105.26152 | 33903 ft | 468 kts | 294° |
| 2026-04-18 16:46 | 27.97485 | 105.19745 | 33901 ft | 472 kts | 304° |
| 2026-04-18 16:46 | 28.02164 | 105.14491 | 33898 ft | 481 kts | 319° |
| 2026-04-18 16:47 | 28.07860 | 105.10451 | 33888 ft | 483 kts | 323° |
| 2026-04-18 16:47 | 28.13533 | 105.06480 | 33881 ft | 481 kts | 323° |
| 2026-04-18 16:48 | 28.19255 | 105.02468 | 33870 ft | 484 kts | 323° |
| 2026-04-18 16:48 | 28.24978 | 104.98459 | 33869 ft | 483 kts | 323° |
| 2026-04-18 16:49 | 28.30690 | 104.94453 | 33868 ft | 484 kts | 323° |
| 2026-04-18 16:49 | 28.33553 | 104.92439 | 33748 ft | 486 kts | 325° |
| 2026-04-18 16:49 | 28.36443 | 104.90405 | 33867 ft | 491 kts | 325° |
| 2026-04-18 16:50 | 28.42242 | 104.86339 | 33858 ft | 494 kts | 325° |
| 2026-04-18 16:50 | 28.47158 | 104.82911 | 33856 ft | 494 kts | 325° |
| 2026-04-18 16:51 | 28.52966 | 104.78852 | 33853 ft | 493 kts | 325° |
| 2026-04-18 16:51 | 28.58802 | 104.74764 | 33850 ft | 493 kts | 325° |
| 2026-04-18 16:52 | 28.64636 | 104.70670 | 33851 ft | 491 kts | 325° |
| 2026-04-18 16:52 | 28.70455 | 104.66583 | 33846 ft | 490 kts | 325° |
| 2026-04-18 16:53 | 28.76219 | 104.62528 | 33849 ft | 490 kts | 325° |
| 2026-04-18 16:53 | 28.82012 | 104.58448 | 33846 ft | 489 kts | 325° |
| 2026-04-18 16:54 | 28.87798 | 104.54361 | 33850 ft | 488 kts | 324° |
| 2026-04-18 16:54 | 28.93562 | 104.50254 | 33848 ft | 488 kts | 324° |
| 2026-04-18 16:55 | 28.99321 | 104.46146 | 33853 ft | 488 kts | 324° |
| 2026-04-18 16:55 | 29.05087 | 104.42030 | 33858 ft | 489 kts | 324° |
| 2026-04-18 16:56 | 29.10850 | 104.37912 | 33844 ft | 487 kts | 324° |
| 2026-04-18 16:56 | 29.16575 | 104.33816 | 33865 ft | 487 kts | 324° |
| 2026-04-18 16:57 | 29.22351 | 104.29715 | 33854 ft | 488 kts | 328° |
| 2026-04-18 16:57 | 29.28852 | 104.27276 | 33855 ft | 502 kts | 349° |
| 2026-04-18 16:58 | 29.35904 | 104.27661 | 33851 ft | 513 kts | 4° |
| 2026-04-18 16:58 | 29.42970 | 104.28873 | 33854 ft | 513 kts | 4° |
| 2026-04-18 16:59 | 29.49995 | 104.30060 | 33861 ft | 513 kts | 4° |
| 2026-04-18 16:59 | 29.57051 | 104.31258 | 33861 ft | 512 kts | 4° |
| 2026-04-18 17:00 | 29.64115 | 104.32462 | 33863 ft | 512 kts | 4° |
| 2026-04-18 17:00 | 29.71156 | 104.33663 | 33862 ft | 511 kts | 4° |
| 2026-04-18 17:01 | 29.78186 | 104.34864 | 33866 ft | 510 kts | 4° |
| 2026-04-18 17:01 | 29.85162 | 104.36057 | 33866 ft | 510 kts | 4° |
| 2026-04-18 17:02 | 29.92180 | 104.37260 | 33868 ft | 509 kts | 4° |
| 2026-04-18 17:02 | 29.99180 | 104.38461 | 33868 ft | 508 kts | 4° |
| 2026-04-18 17:03 | 30.06177 | 104.39663 | 33876 ft | 507 kts | 4° |
| 2026-04-18 17:03 | 30.13146 | 104.40862 | 33879 ft | 506 kts | 3° |
| 2026-04-18 17:03 | 30.16627 | 104.41463 | 34114 ft | 504 kts | 2° |
| 2026-04-18 17:04 | 30.20098 | 104.42071 | 33880 ft | 501 kts | 2° |
| 2026-04-18 17:04 | 30.26912 | 104.43260 | 33889 ft | 499 kts | 2° |
| 2026-04-18 17:05 | 30.33791 | 104.44457 | 33888 ft | 499 kts | 2° |
| 2026-04-18 17:05 | 30.40657 | 104.45658 | 33881 ft | 498 kts | 2° |
| 2026-04-18 17:06 | 30.47507 | 104.46857 | 33884 ft | 496 kts | 2° |
| 2026-04-18 17:06 | 30.54333 | 104.48053 | 33872 ft | 496 kts | 2° |
| 2026-04-18 17:07 | 30.61088 | 104.48264 | 33874 ft | 483 kts | 348° |
| 2026-04-18 17:07 | 30.67545 | 104.46530 | 33870 ft | 472 kts | 336° |
| 2026-04-18 17:08 | 30.73799 | 104.44120 | 33875 ft | 472 kts | 337° |
| 2026-04-18 17:08 | 30.80005 | 104.41753 | 33863 ft | 472 kts | 337° |
| 2026-04-18 17:09 | 30.86327 | 104.39639 | 33873 ft | 477 kts | 344° |
| 2026-04-18 17:09 | 30.92982 | 104.38853 | 33870 ft | 484 kts | 354° |
| 2026-04-18 17:10 | 30.99717 | 104.38691 | 33870 ft | 483 kts | 353° |
| 2026-04-18 17:10 | 31.06431 | 104.38497 | 33865 ft | 483 kts | 353° |
| 2026-04-18 17:11 | 31.13153 | 104.38313 | 33877 ft | 483 kts | 353° |
| 2026-04-18 17:11 | 31.19878 | 104.38135 | 33876 ft | 482 kts | 353° |
| 2026-04-18 17:12 | 31.26563 | 104.37952 | 33884 ft | 483 kts | 353° |
| 2026-04-18 17:12 | 31.33269 | 104.37563 | 33885 ft | 481 kts | 352° |
| 2026-04-18 17:13 | 31.39954 | 104.37137 | 33895 ft | 481 kts | 352° |
| 2026-04-18 17:13 | 31.46640 | 104.36738 | 33897 ft | 481 kts | 352° |
| 2026-04-18 17:14 | 31.53342 | 104.36346 | 33911 ft | 481 kts | 352° |
| 2026-04-18 17:14 | 31.60035 | 104.35955 | 33914 ft | 482 kts | 352° |
| 2026-04-18 17:15 | 31.66677 | 104.35565 | 33929 ft | 482 kts | 352° |
| 2026-04-18 17:15 | 31.73393 | 104.35172 | 33921 ft | 482 kts | 353° |
| 2026-04-18 17:16 | 31.80090 | 104.34791 | 33942 ft | 481 kts | 353° |
| 2026-04-18 17:16 | 31.86810 | 104.34455 | 33944 ft | 482 kts | 353° |
| 2026-04-18 17:17 | 31.93524 | 104.34116 | 33962 ft | 483 kts | 353° |
| 2026-04-18 17:17 | 32.00236 | 104.33772 | 33958 ft | 482 kts | 353° |
| 2026-04-18 17:18 | 32.06938 | 104.33427 | 33964 ft | 481 kts | 353° |
| 2026-04-18 17:18 | 32.13595 | 104.33088 | 33967 ft | 482 kts | 353° |
| 2026-04-18 17:19 | 32.20287 | 104.32740 | 33970 ft | 481 kts | 353° |
| 2026-04-18 17:19 | 32.26979 | 104.32393 | 33968 ft | 480 kts | 353° |
| 2026-04-18 17:20 | 32.33676 | 104.32046 | 33980 ft | 480 kts | 353° |
| 2026-04-18 17:20 | 32.40366 | 104.31700 | 33978 ft | 481 kts | 353° |
| 2026-04-18 17:21 | 32.47021 | 104.31370 | 33988 ft | 481 kts | 353° |
| 2026-04-18 17:21 | 32.53710 | 104.31052 | 33984 ft | 480 kts | 353° |
| 2026-04-18 17:22 | 32.60397 | 104.30732 | 33995 ft | 481 kts | 353° |
| 2026-04-18 17:22 | 32.67102 | 104.30408 | 33975 ft | 482 kts | 353° |
| 2026-04-18 17:23 | 32.73775 | 104.30088 | 33968 ft | 482 kts | 353° |
| 2026-04-18 17:23 | 32.80472 | 104.29766 | 33962 ft | 481 kts | 353° |
| 2026-04-18 17:24 | 32.87184 | 104.29443 | 33740 ft | 484 kts | 353° |
| 2026-04-18 17:24 | 32.90558 | 104.29279 | 34001 ft | 487 kts | 353° |
| 2026-04-18 17:24 | 32.93956 | 104.29112 | 33969 ft | 493 kts | 353° |
| 2026-04-18 17:25 | 33.00875 | 104.28776 | 33961 ft | 496 kts | 353° |
| 2026-04-18 17:25 | 33.07738 | 104.28447 | 33956 ft | 496 kts | 353° |
| 2026-04-18 17:26 | 33.14637 | 104.28112 | 33958 ft | 496 kts | 353° |
| 2026-04-18 17:26 | 33.21529 | 104.27777 | 33950 ft | 495 kts | 353° |
| 2026-04-18 17:27 | 33.28369 | 104.27144 | 33947 ft | 489 kts | 343° |
| 2026-04-18 17:27 | 33.37133 | 104.21620 | 33944 ft | 474 kts | 314° |
| 2026-04-18 17:28 | 33.40990 | 104.15367 | 33948 ft | 470 kts | 297° |
| 2026-04-18 17:28 | 33.44081 | 104.08430 | 33949 ft | 472 kts | 297° |
| 2026-04-18 17:29 | 33.47185 | 104.01509 | 33952 ft | 471 kts | 297° |
| 2026-04-18 17:29 | 33.50282 | 103.94574 | 33940 ft | 472 kts | 297° |
| 2026-04-18 17:30 | 33.53375 | 103.87629 | 33944 ft | 472 kts | 297° |
| 2026-04-18 17:30 | 33.56467 | 103.80670 | 33936 ft | 472 kts | 297° |
| 2026-04-18 17:31 | 33.59525 | 103.73773 | 33927 ft | 470 kts | 297° |
| 2026-04-18 17:31 | 33.62596 | 103.66831 | 33920 ft | 470 kts | 297° |
| 2026-04-18 17:32 | 33.65663 | 103.59890 | 33913 ft | 470 kts | 296° |
| 2026-04-18 17:32 | 33.68716 | 103.52962 | 33901 ft | 469 kts | 296° |
| 2026-04-18 17:33 | 33.73292 | 103.42554 | 33889 ft | 469 kts | 296° |
| 2026-04-18 17:34 | 33.76311 | 103.35670 | 33887 ft | 468 kts | 296° |
| 2026-04-18 17:34 | 33.79346 | 103.28739 | 33880 ft | 469 kts | 296° |
| 2026-04-18 17:35 | 33.82374 | 103.21807 | 33880 ft | 467 kts | 296° |
| 2026-04-18 17:35 | 33.85394 | 103.14882 | 33879 ft | 468 kts | 296° |
| 2026-04-18 17:36 | 33.88406 | 103.07961 | 33867 ft | 467 kts | 296° |
| 2026-04-18 17:36 | 33.91412 | 103.01039 | 33868 ft | 466 kts | 296° |
| 2026-04-18 17:37 | 33.94410 | 102.94122 | 33865 ft | 466 kts | 296° |
| 2026-04-18 17:37 | 33.97404 | 102.87197 | 33867 ft | 466 kts | 296° |
| 2026-04-18 17:38 | 33.99892 | 102.81436 | 33865 ft | 466 kts | 296° |
| 2026-04-18 17:38 | 34.02884 | 102.74493 | 33871 ft | 466 kts | 296° |
| 2026-04-18 17:39 | 34.05869 | 102.67553 | 33870 ft | 467 kts | 296° |
| 2026-04-18 17:39 | 34.08859 | 102.60589 | 33866 ft | 466 kts | 296° |
| 2026-04-18 17:40 | 34.11813 | 102.53694 | 33878 ft | 465 kts | 296° |
| 2026-04-18 17:40 | 34.14784 | 102.46744 | 33874 ft | 467 kts | 296° |
| 2026-04-18 17:41 | 34.17760 | 102.39770 | 33871 ft | 466 kts | 296° |
| 2026-04-18 17:41 | 34.20747 | 102.32831 | 33867 ft | 466 kts | 297° |
| 2026-04-18 17:42 | 34.23814 | 102.25935 | 33857 ft | 464 kts | 297° |
| 2026-04-18 17:42 | 34.26855 | 102.19095 | 33849 ft | 465 kts | 297° |
| 2026-04-18 17:43 | 34.29905 | 102.12201 | 33854 ft | 464 kts | 297° |
| 2026-04-18 17:43 | 34.32950 | 102.05294 | 33866 ft | 465 kts | 297° |
| 2026-04-18 17:44 | 34.35987 | 101.98387 | 33859 ft | 465 kts | 297° |
| 2026-04-18 17:44 | 34.39022 | 101.91467 | 33857 ft | 466 kts | 297° |
| 2026-04-18 17:45 | 34.42053 | 101.84544 | 33854 ft | 464 kts | 297° |
| 2026-04-18 17:45 | 34.45075 | 101.77628 | 33851 ft | 464 kts | 297° |
| 2026-04-18 17:46 | 34.48075 | 101.70748 | 33844 ft | 465 kts | 297° |
| 2026-04-18 17:46 | 34.51092 | 101.63814 | 33843 ft | 464 kts | 296° |
| 2026-04-18 17:47 | 34.54102 | 101.56884 | 33838 ft | 464 kts | 297° |
| 2026-04-18 17:47 | 34.57109 | 101.49946 | 33835 ft | 464 kts | 296° |
| 2026-04-18 17:48 | 34.60110 | 101.43007 | 33829 ft | 463 kts | 296° |
| 2026-04-18 17:48 | 34.63086 | 101.36112 | 33832 ft | 463 kts | 296° |
| 2026-04-18 17:49 | 34.66079 | 101.29166 | 33829 ft | 464 kts | 296° |
| 2026-04-18 17:49 | 34.69064 | 101.22221 | 33819 ft | 464 kts | 296° |
| 2026-04-18 17:50 | 34.72053 | 101.15253 | 33818 ft | 464 kts | 296° |
| 2026-04-18 17:50 | 34.75037 | 101.08285 | 33811 ft | 465 kts | 296° |
| 2026-04-18 17:51 | 34.78019 | 101.01305 | 33812 ft | 465 kts | 296° |
| 2026-04-18 17:51 | 34.80999 | 100.94314 | 33814 ft | 466 kts | 296° |
| 2026-04-18 17:52 | 34.83980 | 100.87311 | 33805 ft | 467 kts | 296° |
| 2026-04-18 17:52 | 34.86944 | 100.80329 | 33800 ft | 468 kts | 296° |
| 2026-04-18 17:53 | 34.89924 | 100.73298 | 33793 ft | 467 kts | 296° |
| 2026-04-18 17:53 | 34.92906 | 100.66246 | 33798 ft | 468 kts | 296° |
| 2026-04-18 17:54 | 34.95882 | 100.59192 | 33791 ft | 468 kts | 296° |
| 2026-04-18 17:54 | 34.98856 | 100.52131 | 33796 ft | 468 kts | 296° |
| 2026-04-18 17:55 | 35.01828 | 100.45059 | 33800 ft | 468 kts | 296° |
| 2026-04-18 17:55 | 35.04773 | 100.38036 | 33791 ft | 467 kts | 296° |
| 2026-04-18 17:56 | 35.07735 | 100.30956 | 33800 ft | 468 kts | 296° |
| 2026-04-18 17:56 | 35.12167 | 100.20337 | 33796 ft | 467 kts | 296° |
| 2026-04-18 17:57 | 35.16597 | 100.09687 | 33802 ft | 469 kts | 296° |
| 2026-04-18 17:58 | 35.22481 | 99.95489 | 33810 ft | 470 kts | 296° |
| 2026-04-18 17:59 | 35.26907 | 99.84772 | 33816 ft | 470 kts | 296° |
| 2026-04-18 18:00 | 35.31320 | 99.74050 | 33829 ft | 471 kts | 295° |
| 2026-04-18 18:01 | 35.37198 | 99.59713 | 33847 ft | 470 kts | 295° |
| 2026-04-18 18:02 | 35.43031 | 99.45426 | 33864 ft | 469 kts | 295° |
| 2026-04-18 18:02 | 35.47404 | 99.34675 | 33882 ft | 469 kts | 295° |
| 2026-04-18 18:03 | 35.51761 | 99.23925 | 33882 ft | 469 kts | 295° |
| 2026-04-18 18:04 | 35.56108 | 99.13168 | 33897 ft | 468 kts | 295° |
| 2026-04-18 18:05 | 35.61854 | 98.98891 | 33891 ft | 467 kts | 295° |
| 2026-04-18 18:05 | 35.64724 | 98.91738 | 33896 ft | 466 kts | 295° |
| 2026-04-18 18:06 | 35.69011 | 98.81022 | 33899 ft | 465 kts | 295° |
| 2026-04-18 18:07 | 35.71859 | 98.73886 | 33897 ft | 463 kts | 295° |
| 2026-04-18 18:07 | 35.76086 | 98.63261 | 33888 ft | 461 kts | 295° |
| 2026-04-18 18:08 | 35.78905 | 98.56159 | 33883 ft | 461 kts | 295° |
| 2026-04-18 18:08 | 35.81710 | 98.49072 | 33875 ft | 459 kts | 295° |
| 2026-04-18 18:09 | 35.84503 | 98.42002 | 33870 ft | 457 kts | 295° |
| 2026-04-18 18:09 | 35.87290 | 98.34935 | 33863 ft | 457 kts | 295° |
| 2026-04-18 18:10 | 35.90053 | 98.27909 | 33854 ft | 458 kts | 295° |
| 2026-04-18 18:10 | 35.92827 | 98.20842 | 33852 ft | 456 kts | 295° |
| 2026-04-18 18:11 | 35.95598 | 98.13767 | 33849 ft | 457 kts | 294° |
| 2026-04-18 18:11 | 35.98338 | 98.06754 | 33845 ft | 455 kts | 294° |
| 2026-04-18 18:12 | 36.01086 | 97.99707 | 33843 ft | 455 kts | 294° |
| 2026-04-18 18:12 | 36.03828 | 97.92660 | 33843 ft | 455 kts | 294° |
| 2026-04-18 18:13 | 36.06571 | 97.85595 | 33841 ft | 455 kts | 294° |
| 2026-04-18 18:13 | 36.09309 | 97.78531 | 33841 ft | 455 kts | 294° |
| 2026-04-18 18:14 | 36.12023 | 97.71521 | 33839 ft | 454 kts | 294° |
| 2026-04-18 18:14 | 36.14748 | 97.64469 | 33835 ft | 454 kts | 294° |
| 2026-04-18 18:15 | 36.17523 | 97.57448 | 33830 ft | 454 kts | 295° |
| 2026-04-18 18:15 | 36.20363 | 97.50466 | 33826 ft | 454 kts | 295° |
| 2026-04-18 18:16 | 36.23189 | 97.43476 | 33825 ft | 453 kts | 295° |
| 2026-04-18 18:16 | 36.25995 | 97.36497 | 33829 ft | 452 kts | 295° |
| 2026-04-18 18:17 | 36.28781 | 97.29550 | 33830 ft | 452 kts | 294° |
| 2026-04-18 18:17 | 36.31572 | 97.22578 | 33834 ft | 451 kts | 294° |
| 2026-04-18 18:18 | 36.34356 | 97.15605 | 33832 ft | 450 kts | 294° |
| 2026-04-18 18:18 | 36.37135 | 97.08631 | 33836 ft | 451 kts | 294° |
| 2026-04-18 18:19 | 36.39909 | 97.01655 | 33837 ft | 450 kts | 294° |
| 2026-04-18 18:19 | 36.42668 | 96.94702 | 33844 ft | 450 kts | 294° |
| 2026-04-18 18:20 | 36.45426 | 96.87737 | 33846 ft | 449 kts | 294° |
| 2026-04-18 18:20 | 36.48181 | 96.80761 | 33849 ft | 450 kts | 294° |
| 2026-04-18 18:21 | 36.50927 | 96.73797 | 33854 ft | 449 kts | 294° |
| 2026-04-18 18:21 | 36.53675 | 96.66807 | 33860 ft | 449 kts | 294° |
| 2026-04-18 18:22 | 36.56418 | 96.59819 | 33864 ft | 449 kts | 294° |
| 2026-04-18 18:22 | 36.59188 | 96.52852 | 33868 ft | 450 kts | 294° |
| 2026-04-18 18:23 | 36.61987 | 96.45892 | 33871 ft | 449 kts | 294° |
| 2026-04-18 18:23 | 36.64757 | 96.38967 | 33878 ft | 450 kts | 294° |
| 2026-04-18 18:24 | 36.67540 | 96.31983 | 33882 ft | 449 kts | 294° |
| 2026-04-18 18:24 | 36.70318 | 96.24998 | 33885 ft | 449 kts | 294° |
| 2026-04-18 18:25 | 36.73087 | 96.18017 | 33890 ft | 449 kts | 294° |
| 2026-04-18 18:25 | 36.75832 | 96.11083 | 33896 ft | 448 kts | 294° |
| 2026-04-18 18:26 | 36.78141 | 96.05240 | 33901 ft | 448 kts | 294° |
| 2026-04-18 18:26 | 36.80915 | 95.98273 | 33904 ft | 448 kts | 294° |
| 2026-04-18 18:27 | 36.83674 | 95.91354 | 33911 ft | 447 kts | 294° |
| 2026-04-18 18:27 | 36.86438 | 95.84397 | 33917 ft | 448 kts | 294° |
| 2026-04-18 18:28 | 36.89201 | 95.77423 | 33922 ft | 447 kts | 294° |
| 2026-04-18 18:28 | 36.91956 | 95.70454 | 33928 ft | 446 kts | 294° |
| 2026-04-18 18:29 | 36.94703 | 95.63489 | 33932 ft | 446 kts | 294° |
| 2026-04-18 18:29 | 36.97444 | 95.56525 | 33938 ft | 446 kts | 294° |
| 2026-04-18 18:30 | 37.00172 | 95.49581 | 33946 ft | 444 kts | 294° |
| 2026-04-18 18:30 | 37.02967 | 95.42657 | 33949 ft | 445 kts | 294° |
| 2026-04-18 18:31 | 37.05773 | 95.35802 | 33955 ft | 445 kts | 294° |
| 2026-04-18 18:31 | 37.08581 | 95.28901 | 33961 ft | 444 kts | 294° |
| 2026-04-18 18:32 | 37.11376 | 95.21998 | 33970 ft | 444 kts | 294° |
| 2026-04-18 18:32 | 37.14166 | 95.15087 | 33976 ft | 443 kts | 294° |
| 2026-04-18 18:33 | 37.16944 | 95.08191 | 33984 ft | 443 kts | 294° |
| 2026-04-18 18:33 | 37.19717 | 95.01294 | 33991 ft | 442 kts | 294° |
| 2026-04-18 18:34 | 37.22482 | 94.94401 | 33997 ft | 442 kts | 293° |
| 2026-04-18 18:34 | 37.25242 | 94.87506 | 34006 ft | 441 kts | 293° |
| 2026-04-18 18:35 | 37.27976 | 94.80661 | 34013 ft | 441 kts | 293° |
| 2026-04-18 18:35 | 37.30726 | 94.73759 | 34021 ft | 441 kts | 293° |
| 2026-04-18 18:36 | 37.33466 | 94.66870 | 34027 ft | 440 kts | 293° |
| 2026-04-18 18:36 | 37.36196 | 94.59988 | 34022 ft | 439 kts | 293° |
| 2026-04-18 18:37 | 37.38922 | 94.53105 | 34020 ft | 439 kts | 293° |
| 2026-04-18 18:37 | 37.41616 | 94.46285 | 34031 ft | 438 kts | 293° |
| 2026-04-18 18:38 | 37.44328 | 94.39404 | 34037 ft | 438 kts | 293° |
| 2026-04-18 18:38 | 37.47029 | 94.32537 | 34043 ft | 437 kts | 293° |
| 2026-04-18 18:39 | 37.49725 | 94.25669 | 34048 ft | 437 kts | 293° |
| 2026-04-18 18:39 | 37.52414 | 94.18801 | 34053 ft | 436 kts | 293° |
| 2026-04-18 18:40 | 37.55097 | 94.11934 | 34049 ft | 436 kts | 293° |
| 2026-04-18 18:40 | 37.57754 | 94.05121 | 34056 ft | 436 kts | 293° |
| 2026-04-18 18:41 | 37.60425 | 93.98254 | 34063 ft | 436 kts | 293° |
| 2026-04-18 18:41 | 37.63094 | 93.91380 | 34065 ft | 436 kts | 292° |
| 2026-04-18 18:42 | 37.65757 | 93.84503 | 34069 ft | 436 kts | 292° |
| 2026-04-18 18:42 | 37.68420 | 93.77614 | 34075 ft | 436 kts | 292° |
| 2026-04-18 18:43 | 37.72403 | 93.67279 | 34078 ft | 436 kts | 292° |
| 2026-04-18 18:44 | 37.75055 | 93.60378 | 34084 ft | 436 kts | 292° |
| 2026-04-18 18:44 | 37.77681 | 93.53529 | 34088 ft | 436 kts | 292° |
| 2026-04-18 18:45 | 37.80323 | 93.46625 | 34094 ft | 436 kts | 292° |
| 2026-04-18 18:45 | 37.82958 | 93.39720 | 34100 ft | 435 kts | 292° |
| 2026-04-18 18:46 | 37.85590 | 93.32812 | 34098 ft | 435 kts | 292° |
| 2026-04-18 18:46 | 37.88202 | 93.25938 | 34112 ft | 435 kts | 292° |
| 2026-04-18 18:47 | 37.90825 | 93.19019 | 34121 ft | 436 kts | 292° |
| 2026-04-18 18:47 | 37.93443 | 93.12100 | 34124 ft | 435 kts | 292° |
| 2026-04-18 18:48 | 37.96057 | 93.05175 | 34127 ft | 435 kts | 292° |
| 2026-04-18 18:48 | 37.98666 | 92.98248 | 34128 ft | 435 kts | 292° |
| 2026-04-18 18:49 | 38.01268 | 92.91323 | 34133 ft | 435 kts | 291° |
| 2026-04-18 18:49 | 38.03869 | 92.84387 | 34139 ft | 435 kts | 291° |
| 2026-04-18 18:50 | 38.06450 | 92.77488 | 34136 ft | 435 kts | 291° |
| 2026-04-18 18:50 | 38.09045 | 92.70533 | 34136 ft | 435 kts | 291° |
| 2026-04-18 18:51 | 38.11637 | 92.63572 | 34135 ft | 436 kts | 291° |
| 2026-04-18 18:51 | 38.14226 | 92.56607 | 34129 ft | 436 kts | 291° |
| 2026-04-18 18:52 | 38.16754 | 92.49669 | 34134 ft | 434 kts | 289° |
| 2026-04-18 18:52 | 38.18874 | 92.42489 | 34123 ft | 434 kts | 287° |
| 2026-04-18 18:53 | 38.21014 | 92.35308 | 34113 ft | 434 kts | 287° |
| 2026-04-18 18:53 | 38.23146 | 92.28118 | 34115 ft | 434 kts | 287° |
| 2026-04-18 18:54 | 38.25262 | 92.20929 | 34110 ft | 434 kts | 287° |
| 2026-04-18 18:54 | 38.27364 | 92.13768 | 34105 ft | 434 kts | 287° |
| 2026-04-18 18:55 | 38.29470 | 92.06572 | 34088 ft | 433 kts | 287° |
| 2026-04-18 18:55 | 38.31575 | 91.99361 | 34088 ft | 434 kts | 287° |
| 2026-04-18 18:56 | 38.33659 | 91.92202 | 34080 ft | 434 kts | 287° |
| 2026-04-18 18:56 | 38.35755 | 91.84983 | 34075 ft | 434 kts | 287° |
| 2026-04-18 18:57 | 38.37845 | 91.77766 | 34076 ft | 434 kts | 287° |
| 2026-04-18 18:57 | 38.39927 | 91.70561 | 34069 ft | 434 kts | 287° |
| 2026-04-18 18:58 | 38.42006 | 91.63339 | 34071 ft | 433 kts | 287° |
| 2026-04-18 18:58 | 38.44069 | 91.56159 | 34074 ft | 434 kts | 286° |
| 2026-04-18 18:59 | 38.46138 | 91.48935 | 34077 ft | 434 kts | 286° |
| 2026-04-18 18:59 | 38.48209 | 91.41688 | 34085 ft | 434 kts | 286° |
| 2026-04-18 19:00 | 38.50272 | 91.34447 | 34094 ft | 434 kts | 286° |
| 2026-04-18 19:00 | 38.52335 | 91.27186 | 34086 ft | 434 kts | 286° |
| 2026-04-18 19:01 | 38.54380 | 91.19969 | 34094 ft | 435 kts | 286° |
| 2026-04-18 19:01 | 38.56435 | 91.12697 | 34099 ft | 435 kts | 286° |
| 2026-04-18 19:02 | 38.58486 | 91.05415 | 34107 ft | 435 kts | 286° |
| 2026-04-18 19:02 | 38.60539 | 90.98113 | 34115 ft | 437 kts | 286° |
| 2026-04-18 19:03 | 38.62593 | 90.90781 | 34122 ft | 437 kts | 286° |
| 2026-04-18 19:03 | 38.64644 | 90.83445 | 34129 ft | 438 kts | 286° |
| 2026-04-18 19:04 | 38.67701 | 90.72471 | 34141 ft | 439 kts | 286° |
| 2026-04-18 19:04 | 38.69858 | 90.65141 | 34141 ft | 441 kts | 289° |
| 2026-04-18 19:05 | 38.73439 | 90.54264 | 34147 ft | 442 kts | 289° |
| 2026-04-18 19:06 | 38.75788 | 90.46977 | 34147 ft | 442 kts | 288° |
| 2026-04-18 19:06 | 38.79281 | 90.36034 | 34145 ft | 442 kts | 288° |
| 2026-04-18 19:07 | 38.81590 | 90.28764 | 34140 ft | 442 kts | 288° |
| 2026-04-18 19:07 | 38.83911 | 90.21440 | 34135 ft | 442 kts | 288° |
| 2026-04-18 19:08 | 38.86232 | 90.14122 | 34137 ft | 443 kts | 288° |
| 2026-04-18 19:08 | 38.88555 | 90.06784 | 34140 ft | 443 kts | 288° |
| 2026-04-18 19:09 | 38.90851 | 89.99499 | 34136 ft | 443 kts | 288° |
| 2026-04-18 19:09 | 38.93156 | 89.92165 | 34131 ft | 442 kts | 288° |
| 2026-04-18 19:10 | 38.95454 | 89.84830 | 34137 ft | 443 kts | 288° |
| 2026-04-18 19:10 | 38.97750 | 89.77487 | 34141 ft | 442 kts | 288° |
| 2026-04-18 19:11 | 39.00033 | 89.70163 | 34142 ft | 442 kts | 288° |
| 2026-04-18 19:11 | 39.02300 | 89.62872 | 34141 ft | 441 kts | 288° |
| 2026-04-18 19:12 | 39.04576 | 89.55534 | 34140 ft | 441 kts | 288° |
| 2026-04-18 19:12 | 39.06844 | 89.48199 | 34140 ft | 441 kts | 288° |
| 2026-04-18 19:13 | 39.09107 | 89.40864 | 34142 ft | 440 kts | 288° |
| 2026-04-18 19:13 | 39.11352 | 89.33566 | 34141 ft | 441 kts | 288° |
| 2026-04-18 19:14 | 39.13604 | 89.26227 | 34142 ft | 441 kts | 288° |
| 2026-04-18 19:14 | 39.15854 | 89.18872 | 34141 ft | 441 kts | 288° |
| 2026-04-18 19:15 | 39.18100 | 89.11513 | 34144 ft | 441 kts | 288° |
| 2026-04-18 19:15 | 39.20340 | 89.04152 | 34142 ft | 440 kts | 288° |
| 2026-04-18 19:16 | 39.22573 | 88.96794 | 34141 ft | 440 kts | 288° |
| 2026-04-18 19:16 | 39.24423 | 88.90683 | 34141 ft | 440 kts | 288° |
| 2026-04-18 19:17 | 39.27005 | 88.82132 | 34136 ft | 440 kts | 288° |
| 2026-04-18 19:17 | 39.29220 | 88.74774 | 34134 ft | 440 kts | 288° |
| 2026-04-18 19:18 | 39.31071 | 88.68610 | 34136 ft | 440 kts | 288° |
| 2026-04-18 19:18 | 39.33266 | 88.61281 | 34138 ft | 440 kts | 288° |
| 2026-04-18 19:19 | 39.35469 | 88.53907 | 34138 ft | 440 kts | 288° |
| 2026-04-18 19:19 | 39.37667 | 88.46529 | 34131 ft | 440 kts | 288° |
| 2026-04-18 19:20 | 39.39861 | 88.39146 | 34140 ft | 440 kts | 288° |
| 2026-04-18 19:20 | 39.42052 | 88.31751 | 34136 ft | 440 kts | 288° |
| 2026-04-18 19:21 | 39.44239 | 88.24349 | 34133 ft | 440 kts | 288° |
| 2026-04-18 19:21 | 39.46405 | 88.16998 | 34135 ft | 440 kts | 288° |
| 2026-04-18 19:22 | 39.48579 | 88.09597 | 34136 ft | 440 kts | 288° |
| 2026-04-18 19:22 | 39.50748 | 88.02195 | 34135 ft | 440 kts | 288° |
| 2026-04-18 19:23 | 39.52918 | 87.94769 | 34135 ft | 441 kts | 288° |
| 2026-04-18 19:23 | 39.55084 | 87.87334 | 34132 ft | 441 kts | 288° |
| 2026-04-18 19:24 | 39.57244 | 87.79902 | 34130 ft | 441 kts | 287° |
| 2026-04-18 19:24 | 39.59404 | 87.72444 | 34135 ft | 442 kts | 287° |
| 2026-04-18 19:25 | 39.61562 | 87.64977 | 34138 ft | 442 kts | 287° |
| 2026-04-18 19:25 | 39.63714 | 87.57506 | 34137 ft | 442 kts | 287° |
| 2026-04-18 19:26 | 39.65850 | 87.50071 | 34131 ft | 442 kts | 287° |
| 2026-04-18 19:26 | 39.67995 | 87.42584 | 34132 ft | 443 kts | 287° |
| 2026-04-18 19:27 | 39.70138 | 87.35080 | 34135 ft | 443 kts | 287° |
| 2026-04-18 19:27 | 39.72277 | 87.27570 | 34134 ft | 443 kts | 287° |
| 2026-04-18 19:28 | 39.74411 | 87.20055 | 34135 ft | 443 kts | 287° |
| 2026-04-18 19:28 | 39.76528 | 87.12580 | 34131 ft | 443 kts | 287° |
| 2026-04-18 19:29 | 39.78652 | 87.05057 | 34131 ft | 444 kts | 287° |
| 2026-04-18 19:29 | 39.80776 | 86.97514 | 34135 ft | 444 kts | 287° |
| 2026-04-18 19:30 | 39.82893 | 86.89970 | 34129 ft | 444 kts | 286° |
| 2026-04-18 19:30 | 39.85012 | 86.82400 | 34139 ft | 445 kts | 286° |
| 2026-04-18 19:31 | 39.87124 | 86.74832 | 34126 ft | 445 kts | 286° |
| 2026-04-18 19:31 | 39.89234 | 86.67251 | 34123 ft | 445 kts | 286° |
| 2026-04-18 19:32 | 39.91326 | 86.59708 | 34124 ft | 445 kts | 286° |
| 2026-04-18 19:32 | 39.93426 | 86.52117 | 34134 ft | 445 kts | 286° |
| 2026-04-18 19:33 | 39.95521 | 86.44518 | 34129 ft | 445 kts | 286° |
| 2026-04-18 19:33 | 39.97613 | 86.36911 | 34120 ft | 446 kts | 286° |
| 2026-04-18 19:34 | 39.99703 | 86.29288 | 34140 ft | 446 kts | 286° |
| 2026-04-18 19:34 | 40.01783 | 86.21678 | 34121 ft | 446 kts | 286° |
| 2026-04-18 19:35 | 40.03862 | 86.14055 | 34121 ft | 446 kts | 286° |
| 2026-04-18 19:35 | 40.05928 | 86.06467 | 34128 ft | 445 kts | 286° |
| 2026-04-18 19:36 | 40.07938 | 85.98822 | 34123 ft | 444 kts | 283° |
| 2026-04-18 19:36 | 40.09619 | 85.91063 | 34118 ft | 443 kts | 283° |
| 2026-04-18 19:37 | 40.11351 | 85.83328 | 34121 ft | 444 kts | 283° |
| 2026-04-18 19:37 | 40.13063 | 85.75597 | 34119 ft | 443 kts | 283° |
| 2026-04-18 19:38 | 40.14765 | 85.67839 | 34122 ft | 444 kts | 283° |
| 2026-04-18 19:38 | 40.16450 | 85.60125 | 34117 ft | 444 kts | 283° |
| 2026-04-18 19:39 | 40.18143 | 85.52350 | 34114 ft | 444 kts | 283° |
| 2026-04-18 19:39 | 40.19828 | 85.44581 | 34118 ft | 444 kts | 283° |
| 2026-04-18 19:40 | 40.21497 | 85.36860 | 34116 ft | 444 kts | 282° |
| 2026-04-18 19:40 | 40.23173 | 85.29079 | 34114 ft | 445 kts | 282° |
| 2026-04-18 19:41 | 40.24846 | 85.21283 | 34116 ft | 444 kts | 282° |
| 2026-04-18 19:41 | 40.26512 | 85.13492 | 34113 ft | 444 kts | 282° |
| 2026-04-18 19:42 | 40.28176 | 85.05684 | 34110 ft | 445 kts | 282° |
| 2026-04-18 19:42 | 40.29832 | 84.97882 | 34111 ft | 445 kts | 282° |
| 2026-04-18 19:43 | 40.31484 | 84.90071 | 34112 ft | 445 kts | 282° |
| 2026-04-18 19:43 | 40.33123 | 84.82295 | 34106 ft | 445 kts | 282° |
| 2026-04-18 19:44 | 40.34765 | 84.74472 | 34106 ft | 445 kts | 282° |
| 2026-04-18 19:45 | 40.37219 | 84.62733 | 34100 ft | 445 kts | 282° |
| 2026-04-18 19:45 | 40.38848 | 84.54902 | 34102 ft | 445 kts | 282° |
| 2026-04-18 19:46 | 40.40472 | 84.47064 | 34106 ft | 445 kts | 282° |
| 2026-04-18 19:46 | 40.42092 | 84.39219 | 34107 ft | 445 kts | 282° |
| 2026-04-18 19:47 | 40.43706 | 84.31375 | 34103 ft | 445 kts | 282° |
| 2026-04-18 19:47 | 40.45306 | 84.23567 | 34101 ft | 445 kts | 281° |
| 2026-04-18 19:48 | 40.46910 | 84.15711 | 34099 ft | 445 kts | 281° |
| 2026-04-18 19:48 | 40.48506 | 84.07860 | 34099 ft | 445 kts | 281° |
| 2026-04-18 19:49 | 40.50100 | 83.99991 | 34097 ft | 445 kts | 281° |
| 2026-04-18 19:49 | 40.51680 | 83.92179 | 34102 ft | 445 kts | 281° |
| 2026-04-18 19:50 | 40.53316 | 83.84337 | 34100 ft | 445 kts | 282° |
| 2026-04-18 19:50 | 40.54971 | 83.76492 | 34099 ft | 445 kts | 282° |
| 2026-04-18 19:51 | 40.56613 | 83.68642 | 34099 ft | 445 kts | 282° |
| 2026-04-18 19:51 | 40.58244 | 83.60793 | 34101 ft | 444 kts | 282° |
| 2026-04-18 19:52 | 40.59859 | 83.52991 | 34097 ft | 445 kts | 281° |
| 2026-04-18 19:52 | 40.61479 | 83.45136 | 34101 ft | 445 kts | 281° |
| 2026-04-18 19:53 | 40.63092 | 83.37283 | 34099 ft | 444 kts | 281° |
| 2026-04-18 19:53 | 40.65501 | 83.25499 | 34098 ft | 444 kts | 281° |
| 2026-04-18 19:54 | 40.67100 | 83.17642 | 34094 ft | 444 kts | 281° |
| 2026-04-18 19:54 | 40.68693 | 83.09788 | 34100 ft | 444 kts | 281° |
| 2026-04-18 19:55 | 40.70279 | 83.01934 | 34098 ft | 443 kts | 281° |
| 2026-04-18 19:55 | 40.71859 | 82.94080 | 34095 ft | 443 kts | 281° |
| 2026-04-18 19:56 | 40.73422 | 82.86283 | 34093 ft | 442 kts | 281° |
| 2026-04-18 19:56 | 40.74988 | 82.78437 | 34098 ft | 443 kts | 281° |
| 2026-04-18 19:57 | 40.76552 | 82.70574 | 34097 ft | 442 kts | 281° |
| 2026-04-18 19:57 | 40.78106 | 82.62728 | 34092 ft | 442 kts | 281° |
| 2026-04-18 19:58 | 40.79658 | 82.54861 | 34094 ft | 442 kts | 281° |
| 2026-04-18 19:58 | 40.81203 | 82.47002 | 34098 ft | 443 kts | 281° |
| 2026-04-18 19:59 | 40.82737 | 82.39167 | 34086 ft | 443 kts | 281° |
| 2026-04-18 19:59 | 40.84276 | 82.31274 | 34088 ft | 444 kts | 280° |
| 2026-04-18 20:00 | 40.85813 | 82.23362 | 34103 ft | 444 kts | 280° |
| 2026-04-18 20:00 | 40.87346 | 82.15441 | 34104 ft | 445 kts | 280° |
| 2026-04-18 20:01 | 40.88875 | 82.07509 | 34108 ft | 445 kts | 280° |
| 2026-04-18 20:01 | 40.90390 | 81.99613 | 34107 ft | 446 kts | 280° |
| 2026-04-18 20:02 | 40.91910 | 81.91664 | 34108 ft | 446 kts | 280° |
| 2026-04-18 20:02 | 40.93421 | 81.83725 | 34102 ft | 445 kts | 279° |
| 2026-04-18 20:03 | 40.94928 | 81.75780 | 34100 ft | 444 kts | 279° |
| 2026-04-18 20:03 | 40.96428 | 81.67849 | 34098 ft | 444 kts | 279° |
| 2026-04-18 20:04 | 40.98071 | 81.59948 | 34102 ft | 446 kts | 282° |
| 2026-04-18 20:04 | 40.99894 | 81.52147 | 34098 ft | 446 kts | 282° |
| 2026-04-18 20:05 | 41.01688 | 81.44293 | 34096 ft | 445 kts | 282° |
| 2026-04-18 20:05 | 41.03454 | 81.36435 | 34102 ft | 445 kts | 282° |
| 2026-04-18 20:06 | 41.04913 | 81.29903 | 34104 ft | 445 kts | 281° |
| 2026-04-18 20:06 | 41.06662 | 81.22053 | 34101 ft | 444 kts | 281° |
| 2026-04-18 20:07 | 41.08402 | 81.14213 | 34095 ft | 443 kts | 281° |
| 2026-04-18 20:07 | 41.10138 | 81.06367 | 34093 ft | 443 kts | 281° |
| 2026-04-18 20:08 | 41.11864 | 80.98536 | 34098 ft | 442 kts | 281° |
| 2026-04-18 20:08 | 41.13582 | 80.90714 | 34095 ft | 441 kts | 281° |
| 2026-04-18 20:09 | 41.15283 | 80.82941 | 34099 ft | 440 kts | 281° |
| 2026-04-18 20:09 | 41.16984 | 80.75137 | 34096 ft | 440 kts | 281° |
| 2026-04-18 20:10 | 41.18678 | 80.67342 | 34096 ft | 439 kts | 281° |
| 2026-04-18 20:10 | 41.20364 | 80.59549 | 34104 ft | 439 kts | 281° |
| 2026-04-18 20:11 | 41.22044 | 80.51765 | 34094 ft | 438 kts | 281° |
| 2026-04-18 20:11 | 41.23714 | 80.43994 | 34094 ft | 437 kts | 281° |
| 2026-04-18 20:12 | 41.25368 | 80.36269 | 34098 ft | 437 kts | 281° |
| 2026-04-18 20:12 | 41.27022 | 80.28509 | 34100 ft | 436 kts | 281° |
| 2026-04-18 20:13 | 41.28658 | 80.20743 | 34099 ft | 436 kts | 281° |
| 2026-04-18 20:13 | 41.30290 | 80.12980 | 34105 ft | 436 kts | 281° |
| 2026-04-18 20:14 | 41.31917 | 80.05218 | 34107 ft | 435 kts | 281° |
| 2026-04-18 20:14 | 41.33525 | 79.97514 | 34110 ft | 434 kts | 281° |
| 2026-04-18 20:15 | 41.35136 | 79.89771 | 34117 ft | 434 kts | 281° |
| 2026-04-18 20:15 | 41.36742 | 79.82023 | 34119 ft | 433 kts | 280° |
| 2026-04-18 20:16 | 41.38334 | 79.74311 | 34123 ft | 432 kts | 280° |
| 2026-04-18 20:16 | 41.39923 | 79.66587 | 34129 ft | 432 kts | 280° |
| 2026-04-18 20:17 | 41.41504 | 79.58871 | 34135 ft | 431 kts | 280° |
| 2026-04-18 20:17 | 41.43066 | 79.51222 | 34144 ft | 430 kts | 280° |
| 2026-04-18 20:18 | 41.44629 | 79.43534 | 34150 ft | 429 kts | 280° |
| 2026-04-18 20:18 | 41.46187 | 79.35848 | 34157 ft | 429 kts | 280° |
| 2026-04-18 20:19 | 41.47737 | 79.28167 | 34172 ft | 428 kts | 280° |
| 2026-04-18 20:19 | 41.49271 | 79.20542 | 34181 ft | 427 kts | 280° |
| 2026-04-18 20:20 | 41.50804 | 79.12891 | 34193 ft | 427 kts | 280° |
| 2026-04-18 20:20 | 41.52333 | 79.05230 | 34207 ft | 428 kts | 280° |
| 2026-04-18 20:21 | 41.53857 | 78.97560 | 34211 ft | 428 kts | 280° |
| 2026-04-18 20:21 | 41.55377 | 78.89879 | 34203 ft | 427 kts | 279° |
| 2026-04-18 20:22 | 41.56340 | 78.82123 | 34205 ft | 423 kts | 271° |
| 2026-04-18 20:22 | 41.56371 | 78.74300 | 34238 ft | 423 kts | 265° |
| 2026-04-18 20:23 | 41.56113 | 78.66485 | 34215 ft | 420 kts | 265° |
| 2026-04-18 20:23 | 41.55872 | 78.58684 | 34206 ft | 422 kts | 265° |
| 2026-04-18 20:24 | 41.55614 | 78.50882 | 34196 ft | 420 kts | 265° |
| 2026-04-18 20:24 | 41.55348 | 78.43121 | 34188 ft | 421 kts | 265° |
| 2026-04-18 20:25 | 41.55076 | 78.35310 | 34193 ft | 420 kts | 265° |
| 2026-04-18 20:25 | 41.54800 | 78.27521 | 34169 ft | 420 kts | 265° |
| 2026-04-18 20:26 | 41.54516 | 78.19717 | 34163 ft | 421 kts | 265° |
| 2026-04-18 20:26 | 41.54228 | 78.11938 | 34152 ft | 422 kts | 265° |
| 2026-04-18 20:27 | 41.53931 | 78.04109 | 34147 ft | 422 kts | 265° |
| 2026-04-18 20:27 | 41.53631 | 77.96276 | 34146 ft | 423 kts | 264° |
| 2026-04-18 20:28 | 41.53327 | 77.88439 | 34137 ft | 423 kts | 264° |
| 2026-04-18 20:28 | 41.53016 | 77.80590 | 34128 ft | 423 kts | 264° |
| 2026-04-18 20:29 | 41.52699 | 77.72744 | 34127 ft | 423 kts | 264° |
| 2026-04-18 20:29 | 41.52378 | 77.64928 | 34118 ft | 424 kts | 264° |
| 2026-04-18 20:30 | 41.52049 | 77.57053 | 34120 ft | 424 kts | 264° |
| 2026-04-18 20:30 | 41.51716 | 77.49187 | 34112 ft | 424 kts | 264° |
| 2026-04-18 20:31 | 41.51376 | 77.41301 | 34110 ft | 425 kts | 264° |
| 2026-04-18 20:31 | 41.51033 | 77.33478 | 34101 ft | 425 kts | 264° |
| 2026-04-18 20:32 | 41.50682 | 77.25594 | 34095 ft | 426 kts | 263° |
| 2026-04-18 20:32 | 41.50326 | 77.17704 | 34095 ft | 426 kts | 263° |
| 2026-04-18 20:33 | 41.49963 | 77.09793 | 34087 ft | 428 kts | 263° |
| 2026-04-18 20:33 | 41.49594 | 77.01878 | 34080 ft | 427 kts | 263° |
| 2026-04-18 20:34 | 41.49220 | 76.93966 | 34066 ft | 427 kts | 263° |
| 2026-04-18 20:34 | 41.48841 | 76.86049 | 34064 ft | 427 kts | 263° |
| 2026-04-18 20:35 | 41.48456 | 76.78120 | 34039 ft | 428 kts | 263° |
| 2026-04-18 20:35 | 41.48066 | 76.70225 | 34038 ft | 429 kts | 263° |
| 2026-04-18 20:36 | 41.47671 | 76.62286 | 34043 ft | 429 kts | 263° |
| 2026-04-18 20:36 | 41.47269 | 76.54338 | 34054 ft | 429 kts | 262° |
| 2026-04-18 20:37 | 41.46861 | 76.46399 | 34023 ft | 429 kts | 262° |
| 2026-04-18 20:37 | 41.46446 | 76.38451 | 34025 ft | 430 kts | 262° |
| 2026-04-18 20:38 | 41.46025 | 76.30499 | 34029 ft | 430 kts | 262° |
| 2026-04-18 20:38 | 41.45600 | 76.22544 | 34029 ft | 430 kts | 262° |
| 2026-04-18 20:39 | 41.45172 | 76.14643 | 34013 ft | 430 kts | 262° |
| 2026-04-18 20:39 | 41.44735 | 76.06679 | 34025 ft | 430 kts | 262° |
| 2026-04-18 20:40 | 41.44293 | 75.98715 | 34007 ft | 431 kts | 262° |
| 2026-04-18 20:40 | 41.43844 | 75.90747 | 34006 ft | 431 kts | 261° |
| 2026-04-18 20:41 | 41.43391 | 75.82782 | 34013 ft | 431 kts | 261° |
| 2026-04-18 20:41 | 41.42936 | 75.74814 | 34012 ft | 431 kts | 261° |
| 2026-04-18 20:42 | 41.42472 | 75.66851 | 34015 ft | 431 kts | 261° |
| 2026-04-18 20:42 | 41.42002 | 75.58938 | 34023 ft | 431 kts | 261° |
| 2026-04-18 20:43 | 41.41528 | 75.50983 | 34018 ft | 430 kts | 261° |
| 2026-04-18 20:43 | 41.41049 | 75.43044 | 34026 ft | 430 kts | 261° |
| 2026-04-18 20:44 | 41.40564 | 75.35092 | 34018 ft | 430 kts | 261° |
| 2026-04-18 20:44 | 41.40078 | 75.27200 | 34026 ft | 431 kts | 260° |
| 2026-04-18 20:45 | 41.39582 | 75.19250 | 34022 ft | 430 kts | 260° |
| 2026-04-18 20:45 | 41.39082 | 75.11316 | 34027 ft | 430 kts | 260° |
| 2026-04-18 20:46 | 41.38577 | 75.03395 | 34028 ft | 431 kts | 260° |
| 2026-04-18 20:46 | 41.38063 | 74.95435 | 34032 ft | 431 kts | 260° |
| 2026-04-18 20:47 | 41.37547 | 74.87481 | 34030 ft | 431 kts | 260° |
| 2026-04-18 20:47 | 41.37024 | 74.79531 | 34024 ft | 431 kts | 259° |
| 2026-04-18 20:48 | 41.36495 | 74.71617 | 34026 ft | 431 kts | 259° |
| 2026-04-18 20:48 | 41.35959 | 74.63648 | 34036 ft | 432 kts | 259° |
| 2026-04-18 20:49 | 41.35418 | 74.55685 | 34028 ft | 432 kts | 259° |
| 2026-04-18 20:49 | 41.34874 | 74.47716 | 34028 ft | 432 kts | 259° |
| 2026-04-18 20:50 | 41.34322 | 74.39753 | 34025 ft | 432 kts | 259° |
| 2026-04-18 20:50 | 41.33758 | 74.31776 | 34026 ft | 433 kts | 259° |
| 2026-04-18 20:51 | 41.33195 | 74.23790 | 34026 ft | 433 kts | 259° |
| 2026-04-18 20:51 | 41.32625 | 74.15809 | 34030 ft | 433 kts | 259° |
| 2026-04-18 20:52 | 41.32049 | 74.07830 | 34023 ft | 433 kts | 258° |
| 2026-04-18 20:52 | 41.31467 | 73.99849 | 34020 ft | 433 kts | 258° |
| 2026-04-18 20:53 | 41.31085 | 73.91870 | 34021 ft | 437 kts | 261° |
| 2026-04-18 20:53 | 41.30794 | 73.83787 | 34016 ft | 436 kts | 261° |
| 2026-04-18 20:54 | 41.30464 | 73.75744 | 34013 ft | 435 kts | 260° |
| 2026-04-18 20:54 | 41.30174 | 73.69057 | 34015 ft | 438 kts | 260° |
| 2026-04-18 20:55 | 41.29819 | 73.60990 | 34017 ft | 437 kts | 260° |
| 2026-04-18 20:55 | 41.29395 | 73.51629 | 34021 ft | 438 kts | 260° |
| 2026-04-18 20:56 | 41.29090 | 73.44934 | 34014 ft | 435 kts | 260° |
| 2026-04-18 20:56 | 41.28716 | 73.36875 | 34017 ft | 436 kts | 260° |
| 2026-04-18 20:57 | 41.28338 | 73.28852 | 34011 ft | 434 kts | 260° |
| 2026-04-18 20:57 | 41.27955 | 73.20833 | 34040 ft | 435 kts | 259° |
| 2026-04-18 20:58 | 41.27567 | 73.12817 | 34017 ft | 434 kts | 259° |
| 2026-04-18 20:58 | 41.27175 | 73.04849 | 34019 ft | 435 kts | 259° |
| 2026-04-18 20:59 | 41.26774 | 72.96801 | 34018 ft | 435 kts | 259° |
| 2026-04-18 20:59 | 41.26368 | 72.88763 | 34021 ft | 436 kts | 259° |
| 2026-04-18 21:00 | 41.25957 | 72.80713 | 34027 ft | 437 kts | 259° |
| 2026-04-18 21:00 | 41.25538 | 72.72664 | 34025 ft | 437 kts | 259° |
| 2026-04-18 21:01 | 41.25113 | 72.64603 | 34026 ft | 437 kts | 259° |
| 2026-04-18 21:01 | 41.24686 | 72.56599 | 34026 ft | 437 kts | 259° |
| 2026-04-18 21:02 | 41.24031 | 72.44521 | 34026 ft | 437 kts | 259° |
| 2026-04-18 21:03 | 41.23587 | 72.36470 | 34026 ft | 436 kts | 259° |
| 2026-04-18 21:03 | 41.23142 | 72.28485 | 34028 ft | 436 kts | 259° |
| 2026-04-18 21:04 | 41.22691 | 72.20470 | 34026 ft | 434 kts | 259° |
| 2026-04-18 21:04 | 41.22235 | 72.12463 | 34029 ft | 434 kts | 259° |
| 2026-04-18 21:05 | 41.21775 | 72.04474 | 34027 ft | 433 kts | 258° |
| 2026-04-18 21:05 | 41.21309 | 71.96482 | 34030 ft | 433 kts | 258° |
| 2026-04-18 21:06 | 41.20839 | 71.88503 | 34023 ft | 434 kts | 258° |
| 2026-04-18 21:06 | 41.20365 | 71.80564 | 34017 ft | 434 kts | 258° |
| 2026-04-18 21:07 | 41.19880 | 71.72578 | 34014 ft | 434 kts | 258° |
| 2026-04-18 21:07 | 41.19388 | 71.64576 | 34013 ft | 435 kts | 258° |
| 2026-04-18 21:08 | 41.18890 | 71.56568 | 34002 ft | 434 kts | 258° |
| 2026-04-18 21:08 | 41.18387 | 71.48553 | 34004 ft | 436 kts | 258° |
| 2026-04-18 21:09 | 41.17877 | 71.40533 | 34009 ft | 437 kts | 257° |
| 2026-04-18 21:09 | 41.17362 | 71.32533 | 34010 ft | 438 kts | 257° |
| 2026-04-18 21:10 | 41.16839 | 71.24475 | 34019 ft | 438 kts | 257° |
| 2026-04-18 21:10 | 41.16310 | 71.16411 | 34009 ft | 439 kts | 257° |
| 2026-04-18 21:11 | 41.15772 | 71.08320 | 34012 ft | 440 kts | 257° |
| 2026-04-18 21:11 | 41.15226 | 71.00209 | 34038 ft | 441 kts | 257° |
| 2026-04-18 21:12 | 41.14680 | 70.92116 | 34025 ft | 441 kts | 257° |
| 2026-04-18 21:12 | 41.14123 | 70.83989 | 34026 ft | 444 kts | 257° |
| 2026-04-18 21:13 | 41.13563 | 70.75900 | 34033 ft | 444 kts | 257° |
| 2026-04-18 21:13 | 41.12991 | 70.67739 | 34022 ft | 444 kts | 257° |
| 2026-04-18 21:14 | 41.12414 | 70.59533 | 34036 ft | 446 kts | 257° |
| 2026-04-18 21:14 | 41.11827 | 70.51330 | 34045 ft | 447 kts | 257° |
| 2026-04-18 21:15 | 41.11229 | 70.43108 | 34059 ft | 447 kts | 257° |
| 2026-04-18 21:15 | 41.10633 | 70.34893 | 34059 ft | 448 kts | 257° |
| 2026-04-18 21:16 | 41.10062 | 70.26725 | 34063 ft | 450 kts | 259° |
| 2026-04-18 21:16 | 41.10338 | 70.18302 | 34071 ft | 464 kts | 268° |
| 2026-04-18 21:17 | 41.11115 | 70.09797 | 34076 ft | 463 kts | 268° |
| 2026-04-18 21:17 | 41.11859 | 70.01260 | 34077 ft | 466 kts | 268° |
| 2026-04-18 21:18 | 41.12595 | 69.92789 | 34081 ft | 465 kts | 268° |
| 2026-04-18 21:18 | 41.13330 | 69.84248 | 34082 ft | 465 kts | 268° |
| 2026-04-18 21:19 | 41.14060 | 69.75694 | 34084 ft | 467 kts | 268° |
| 2026-04-18 21:19 | 41.14784 | 69.67130 | 34084 ft | 467 kts | 268° |
| 2026-04-18 21:20 | 41.15503 | 69.58546 | 34082 ft | 468 kts | 268° |
| 2026-04-18 21:20 | 41.16216 | 69.49959 | 34081 ft | 468 kts | 268° |
| 2026-04-18 21:21 | 41.16919 | 69.41411 | 34075 ft | 469 kts | 268° |
| 2026-04-18 21:21 | 41.17623 | 69.32783 | 34077 ft | 469 kts | 268° |
| 2026-04-18 21:22 | 41.18320 | 69.24157 | 34070 ft | 470 kts | 269° |
| 2026-04-18 21:22 | 41.18638 | 69.15601 | 34076 ft | 467 kts | 265° |
| 2026-04-18 21:23 | 41.18868 | 69.06918 | 34072 ft | 468 kts | 265° |
| 2026-04-18 21:23 | 41.19091 | 68.98339 | 34076 ft | 469 kts | 265° |
| 2026-04-18 21:24 | 41.19441 | 68.89654 | 34080 ft | 475 kts | 271° |
| 2026-04-18 21:24 | 41.20303 | 68.80930 | 34081 ft | 476 kts | 271° |
| 2026-04-18 21:25 | 41.21137 | 68.72183 | 34083 ft | 477 kts | 271° |
| 2026-04-18 21:25 | 41.21964 | 68.63410 | 34082 ft | 479 kts | 272° |
| 2026-04-18 21:26 | 41.22787 | 68.54618 | 34083 ft | 480 kts | 272° |
| 2026-04-18 21:26 | 41.23607 | 68.45789 | 34085 ft | 481 kts | 272° |
| 2026-04-18 21:27 | 41.24416 | 68.37010 | 34091 ft | 482 kts | 272° |
| 2026-04-18 21:27 | 41.25225 | 68.28150 | 34087 ft | 483 kts | 273° |
| 2026-04-18 21:28 | 41.26028 | 68.19278 | 34088 ft | 484 kts | 273° |
| 2026-04-18 21:28 | 41.26826 | 68.10392 | 34086 ft | 484 kts | 273° |
| 2026-04-18 21:29 | 41.27618 | 68.01483 | 34089 ft | 485 kts | 273° |
| 2026-04-18 21:29 | 41.28440 | 67.92643 | 34088 ft | 487 kts | 277° |
| 2026-04-18 21:30 | 41.29820 | 67.83811 | 34089 ft | 487 kts | 278° |
| 2026-04-18 21:30 | 41.31201 | 67.74978 | 34096 ft | 488 kts | 279° |
| 2026-04-18 21:31 | 41.32566 | 67.66147 | 34093 ft | 488 kts | 279° |
| 2026-04-18 21:31 | 41.33925 | 67.57314 | 34093 ft | 487 kts | 279° |
| 2026-04-18 21:32 | 41.35277 | 67.48478 | 34099 ft | 487 kts | 279° |
| 2026-04-18 21:32 | 41.36615 | 67.39683 | 34099 ft | 487 kts | 279° |
| 2026-04-18 21:33 | 41.37953 | 67.30841 | 34094 ft | 486 kts | 279° |
| 2026-04-18 21:33 | 41.39285 | 67.21993 | 34099 ft | 487 kts | 279° |
| 2026-04-18 21:34 | 41.40606 | 67.13162 | 34096 ft | 486 kts | 279° |
| 2026-04-18 21:34 | 41.41925 | 67.04304 | 34100 ft | 486 kts | 280° |
| 2026-04-18 21:35 | 41.43234 | 66.95463 | 34099 ft | 486 kts | 280° |
| 2026-04-18 21:35 | 41.44528 | 66.86672 | 34095 ft | 486 kts | 280° |
| 2026-04-18 21:36 | 41.45824 | 66.77817 | 34096 ft | 486 kts | 280° |
| 2026-04-18 21:36 | 41.47111 | 66.68976 | 34092 ft | 486 kts | 280° |
| 2026-04-18 21:37 | 41.48394 | 66.60122 | 34095 ft | 486 kts | 280° |
| 2026-04-18 21:37 | 41.49697 | 66.51274 | 34088 ft | 486 kts | 281° |
| 2026-04-18 21:38 | 41.51006 | 66.42417 | 34094 ft | 486 kts | 281° |
| 2026-04-18 21:38 | 41.52301 | 66.33577 | 34097 ft | 485 kts | 281° |
| 2026-04-18 21:39 | 41.53580 | 66.24784 | 34096 ft | 485 kts | 281° |
| 2026-04-18 21:39 | 41.54860 | 66.15932 | 34097 ft | 485 kts | 281° |
| 2026-04-18 21:40 | 41.56133 | 66.07083 | 34087 ft | 485 kts | 281° |
| 2026-04-18 21:40 | 41.57397 | 65.98240 | 34098 ft | 485 kts | 281° |
| 2026-04-18 21:41 | 41.58655 | 65.89394 | 34090 ft | 484 kts | 280° |
| 2026-04-18 21:41 | 41.59905 | 65.80542 | 34088 ft | 484 kts | 280° |
| 2026-04-18 21:42 | 41.61145 | 65.71700 | 34093 ft | 484 kts | 280° |
| 2026-04-18 21:42 | 41.62377 | 65.62864 | 34093 ft | 483 kts | 280° |
| 2026-04-18 21:43 | 41.63592 | 65.54106 | 34087 ft | 483 kts | 280° |
| 2026-04-18 21:43 | 41.64809 | 65.45270 | 34092 ft | 483 kts | 280° |
| 2026-04-18 21:44 | 41.66018 | 65.36445 | 34096 ft | 482 kts | 280° |
| 2026-04-18 21:44 | 41.67019 | 65.29102 | 34096 ft | 483 kts | 280° |
| 2026-04-18 21:45 | 41.68215 | 65.20275 | 34090 ft | 482 kts | 280° |
| 2026-04-18 21:45 | 41.69405 | 65.11442 | 34098 ft | 482 kts | 280° |
| 2026-04-18 21:46 | 41.70587 | 65.02613 | 34095 ft | 482 kts | 280° |
| 2026-04-18 21:46 | 41.71763 | 64.93773 | 34104 ft | 482 kts | 280° |
| 2026-04-18 21:47 | 41.72932 | 64.84936 | 34101 ft | 481 kts | 280° |
| 2026-04-18 21:47 | 41.74092 | 64.76110 | 34103 ft | 481 kts | 280° |
| 2026-04-18 21:48 | 41.75238 | 64.67335 | 34101 ft | 481 kts | 280° |
| 2026-04-18 21:48 | 41.76585 | 64.58572 | 34103 ft | 481 kts | 285° |
| 2026-04-18 21:49 | 41.78372 | 64.49950 | 34101 ft | 480 kts | 285° |
| 2026-04-18 21:49 | 41.80136 | 64.41317 | 34102 ft | 480 kts | 285° |
| 2026-04-18 21:50 | 41.81888 | 64.32686 | 34096 ft | 479 kts | 285° |
| 2026-04-18 21:50 | 41.83631 | 64.24064 | 34097 ft | 479 kts | 285° |
| 2026-04-18 21:51 | 41.85366 | 64.15442 | 34095 ft | 479 kts | 285° |
| 2026-04-18 21:51 | 41.87096 | 64.06810 | 34098 ft | 478 kts | 285° |
| 2026-04-18 21:52 | 41.88817 | 63.98189 | 34090 ft | 478 kts | 285° |
| 2026-04-18 21:52 | 41.90531 | 63.89560 | 34095 ft | 478 kts | 285° |
| 2026-04-18 21:53 | 41.92236 | 63.80945 | 34099 ft | 477 kts | 285° |
| 2026-04-18 21:53 | 41.93923 | 63.72381 | 34099 ft | 477 kts | 285° |
| 2026-04-18 21:54 | 41.95615 | 63.63759 | 34101 ft | 476 kts | 285° |
| 2026-04-18 21:54 | 41.97298 | 63.55138 | 34103 ft | 476 kts | 285° |
| 2026-04-18 21:55 | 41.98963 | 63.46579 | 34100 ft | 475 kts | 285° |
| 2026-04-18 21:55 | 42.00629 | 63.37973 | 34102 ft | 476 kts | 285° |
| 2026-04-18 21:56 | 42.02288 | 63.29367 | 34103 ft | 475 kts | 285° |
| 2026-04-18 21:56 | 42.03939 | 63.20763 | 34101 ft | 475 kts | 286° |
| 2026-04-18 21:57 | 42.05584 | 63.12155 | 34101 ft | 474 kts | 286° |
| 2026-04-18 21:57 | 42.07221 | 63.03552 | 34102 ft | 474 kts | 286° |
| 2026-04-18 21:58 | 42.08830 | 62.94950 | 34104 ft | 474 kts | 285° |
| 2026-04-18 21:58 | 42.10354 | 62.86385 | 34107 ft | 473 kts | 285° |
| 2026-04-18 21:59 | 42.11890 | 62.77746 | 34104 ft | 473 kts | 285° |
| 2026-04-18 21:59 | 42.13477 | 62.69163 | 34107 ft | 472 kts | 286° |
| 2026-04-18 22:00 | 42.15089 | 62.60584 | 34111 ft | 472 kts | 287° |
| 2026-04-18 22:00 | 42.16677 | 62.52065 | 34110 ft | 471 kts | 287° |
| 2026-04-18 22:01 | 42.18259 | 62.43499 | 34108 ft | 470 kts | 287° |
| 2026-04-18 22:01 | 42.19832 | 62.34934 | 34109 ft | 470 kts | 287° |
| 2026-04-18 22:02 | 42.21396 | 62.26379 | 34109 ft | 469 kts | 287° |
| 2026-04-18 22:02 | 42.22946 | 62.17862 | 34111 ft | 469 kts | 287° |
| 2026-04-18 22:03 | 42.24496 | 62.09308 | 34105 ft | 468 kts | 287° |
| 2026-04-18 22:03 | 42.26039 | 62.00753 | 34109 ft | 468 kts | 287° |
| 2026-04-18 22:04 | 42.27570 | 61.92227 | 34111 ft | 467 kts | 287° |
| 2026-04-18 22:04 | 42.29091 | 61.83711 | 34114 ft | 467 kts | 287° |
| 2026-04-18 22:05 | 42.30598 | 61.75239 | 34111 ft | 466 kts | 287° |
| 2026-04-18 22:05 | 42.32106 | 61.66721 | 34110 ft | 465 kts | 287° |
| 2026-04-18 22:06 | 42.33607 | 61.58207 | 34108 ft | 465 kts | 287° |
| 2026-04-18 22:06 | 42.35098 | 61.49704 | 34115 ft | 464 kts | 287° |
| 2026-04-18 22:07 | 42.36579 | 61.41218 | 34108 ft | 463 kts | 287° |
| 2026-04-18 22:07 | 42.38051 | 61.32743 | 34113 ft | 462 kts | 287° |
| 2026-04-18 22:08 | 42.39517 | 61.24271 | 34110 ft | 462 kts | 287° |
| 2026-04-18 22:08 | 42.40974 | 61.15799 | 34118 ft | 461 kts | 287° |
| 2026-04-18 22:09 | 42.42418 | 61.07376 | 34111 ft | 461 kts | 287° |
| 2026-04-18 22:09 | 42.43860 | 60.98918 | 34118 ft | 461 kts | 287° |
| 2026-04-18 22:10 | 42.45294 | 60.90463 | 34115 ft | 460 kts | 287° |
| 2026-04-18 22:10 | 42.46722 | 60.82007 | 34118 ft | 460 kts | 287° |
| 2026-04-18 22:11 | 42.48143 | 60.73551 | 34111 ft | 460 kts | 287° |
| 2026-04-18 22:11 | 42.49557 | 60.65097 | 34116 ft | 459 kts | 287° |
| 2026-04-18 22:12 | 42.51667 | 60.52408 | 34109 ft | 460 kts | 287° |
| 2026-04-18 22:12 | 42.53064 | 60.43949 | 34107 ft | 460 kts | 287° |
| 2026-04-18 22:13 | 42.54457 | 60.35480 | 34111 ft | 460 kts | 287° |
| 2026-04-18 22:13 | 42.55843 | 60.27009 | 34099 ft | 460 kts | 287° |
| 2026-04-18 22:14 | 42.57213 | 60.18591 | 34093 ft | 460 kts | 287° |
| 2026-04-18 22:14 | 42.58588 | 60.10104 | 34109 ft | 461 kts | 287° |
| 2026-04-18 22:15 | 42.59959 | 60.01599 | 34097 ft | 460 kts | 287° |
| 2026-04-18 22:15 | 42.61324 | 59.93089 | 34097 ft | 461 kts | 287° |
| 2026-04-18 22:16 | 42.62683 | 59.84568 | 34101 ft | 462 kts | 287° |
| 2026-04-18 22:16 | 42.64030 | 59.76088 | 34093 ft | 462 kts | 287° |
| 2026-04-18 22:17 | 42.65379 | 59.67545 | 34097 ft | 463 kts | 287° |
| 2026-04-18 22:17 | 42.66725 | 59.58983 | 34093 ft | 464 kts | 286° |
| 2026-04-18 22:18 | 42.68064 | 59.50414 | 34091 ft | 464 kts | 286° |
| 2026-04-18 22:18 | 42.69391 | 59.41878 | 34091 ft | 464 kts | 286° |
| 2026-04-18 22:19 | 42.70728 | 59.33234 | 34094 ft | 464 kts | 286° |
| 2026-04-18 22:19 | 42.72051 | 59.24638 | 34089 ft | 465 kts | 286° |
| 2026-04-18 22:20 | 42.73364 | 59.16084 | 34089 ft | 465 kts | 286° |
| 2026-04-18 22:20 | 42.74681 | 59.07460 | 34091 ft | 465 kts | 286° |
| 2026-04-18 22:21 | 42.75952 | 58.98820 | 34090 ft | 465 kts | 285° |
| 2026-04-18 22:21 | 42.77217 | 58.90163 | 34096 ft | 466 kts | 285° |
| 2026-04-18 22:22 | 42.78471 | 58.81507 | 34093 ft | 465 kts | 285° |
| 2026-04-18 22:22 | 42.79715 | 58.72910 | 34090 ft | 466 kts | 285° |
| 2026-04-18 22:23 | 42.80966 | 58.64240 | 34092 ft | 466 kts | 285° |
| 2026-04-18 22:23 | 42.82208 | 58.55565 | 34090 ft | 466 kts | 285° |
| 2026-04-18 22:24 | 42.83442 | 58.46895 | 34093 ft | 466 kts | 284° |
| 2026-04-18 22:24 | 42.84664 | 58.38258 | 34095 ft | 467 kts | 284° |
| 2026-04-18 22:25 | 42.85884 | 58.29584 | 34091 ft | 466 kts | 284° |
| 2026-04-18 22:25 | 42.87100 | 58.20892 | 34089 ft | 467 kts | 284° |
| 2026-04-18 22:26 | 42.88309 | 58.12198 | 34088 ft | 466 kts | 284° |
| 2026-04-18 22:26 | 42.89511 | 58.03503 | 34088 ft | 467 kts | 283° |
| 2026-04-18 22:27 | 42.90702 | 57.94837 | 34088 ft | 466 kts | 283° |
| 2026-04-18 22:27 | 42.91893 | 57.86118 | 34091 ft | 468 kts | 283° |
| 2026-04-18 22:28 | 42.93080 | 57.77380 | 34084 ft | 468 kts | 283° |
| 2026-04-18 22:28 | 42.94260 | 57.68638 | 34082 ft | 469 kts | 283° |
| 2026-04-18 22:29 | 42.95435 | 57.59883 | 34086 ft | 469 kts | 283° |
| 2026-04-18 22:29 | 42.96605 | 57.51110 | 34085 ft | 470 kts | 283° |
| 2026-04-18 22:30 | 42.97770 | 57.42324 | 34085 ft | 470 kts | 283° |
| 2026-04-18 22:30 | 42.98923 | 57.33577 | 34081 ft | 471 kts | 283° |
| 2026-04-18 22:31 | 43.00079 | 57.24744 | 34081 ft | 472 kts | 283° |
| 2026-04-18 22:31 | 43.01230 | 57.15897 | 34082 ft | 473 kts | 282° |
| 2026-04-18 22:32 | 43.02375 | 57.07041 | 34081 ft | 473 kts | 282° |
| 2026-04-18 22:32 | 43.03509 | 56.98222 | 34078 ft | 474 kts | 282° |
| 2026-04-18 22:33 | 43.04642 | 56.89345 | 34075 ft | 474 kts | 282° |
| 2026-04-18 22:33 | 43.05769 | 56.80462 | 34074 ft | 475 kts | 282° |
| 2026-04-18 22:34 | 43.06701 | 56.73068 | 34075 ft | 475 kts | 282° |
| 2026-04-18 22:34 | 43.07819 | 56.64147 | 34071 ft | 476 kts | 282° |
| 2026-04-18 22:35 | 43.08931 | 56.55215 | 34074 ft | 476 kts | 281° |
| 2026-04-18 22:35 | 43.10038 | 56.46267 | 34070 ft | 477 kts | 281° |
| 2026-04-18 22:36 | 43.11139 | 56.37309 | 34065 ft | 477 kts | 281° |
| 2026-04-18 22:36 | 43.12225 | 56.28412 | 34069 ft | 477 kts | 281° |
| 2026-04-18 22:37 | 43.13314 | 56.19424 | 34061 ft | 478 kts | 281° |
| 2026-04-18 22:37 | 43.14396 | 56.10439 | 34058 ft | 478 kts | 281° |
| 2026-04-18 22:38 | 43.15475 | 56.01444 | 34057 ft | 479 kts | 281° |
| 2026-04-18 22:38 | 43.16764 | 55.92500 | 34054 ft | 479 kts | 284° |
| 2026-04-18 22:39 | 43.18311 | 55.83678 | 34051 ft | 479 kts | 284° |
| 2026-04-18 22:39 | 43.19814 | 55.74780 | 34042 ft | 479 kts | 284° |
| 2026-04-18 22:40 | 43.21272 | 55.65886 | 33918 ft | 471 kts | 285° |
| 2026-04-18 22:40 | 43.21981 | 55.61529 | 34058 ft | 465 kts | 285° |
| 2026-04-18 22:40 | 43.22683 | 55.57212 | 34045 ft | 462 kts | 285° |
| 2026-04-18 22:41 | 43.24084 | 55.48590 | 34048 ft | 464 kts | 284° |
| 2026-04-18 22:41 | 43.25467 | 55.40017 | 34036 ft | 463 kts | 284° |
| 2026-04-18 22:42 | 43.26855 | 55.31368 | 34033 ft | 464 kts | 284° |
| 2026-04-18 22:42 | 43.28238 | 55.22709 | 34030 ft | 464 kts | 284° |
| 2026-04-18 22:43 | 43.29615 | 55.14040 | 34032 ft | 464 kts | 284° |
| 2026-04-18 22:43 | 43.30975 | 55.05432 | 34029 ft | 464 kts | 284° |
| 2026-04-18 22:44 | 43.32339 | 54.96753 | 34021 ft | 465 kts | 284° |
| 2026-04-18 22:44 | 43.33696 | 54.88073 | 34013 ft | 465 kts | 283° |
| 2026-04-18 22:45 | 43.35051 | 54.79364 | 34014 ft | 465 kts | 283° |
| 2026-04-18 22:45 | 43.36399 | 54.70652 | 34002 ft | 466 kts | 283° |
| 2026-04-18 22:46 | 43.37732 | 54.61988 | 34003 ft | 466 kts | 283° |
| 2026-04-18 22:46 | 43.39068 | 54.53253 | 34000 ft | 466 kts | 283° |
| 2026-04-18 22:47 | 43.40397 | 54.44519 | 34005 ft | 467 kts | 283° |
| 2026-04-18 22:47 | 43.41720 | 54.35781 | 34004 ft | 467 kts | 283° |
| 2026-04-18 22:48 | 43.43039 | 54.27025 | 34006 ft | 467 kts | 282° |
| 2026-04-18 22:48 | 43.44341 | 54.18328 | 34003 ft | 468 kts | 282° |
| 2026-04-18 22:49 | 43.45646 | 54.09568 | 34000 ft | 468 kts | 282° |
| 2026-04-18 22:49 | 43.46946 | 54.00791 | 33991 ft | 468 kts | 282° |
| 2026-04-18 22:50 | 43.48240 | 53.92004 | 33988 ft | 468 kts | 282° |
| 2026-04-18 22:50 | 43.49527 | 53.83219 | 33971 ft | 468 kts | 282° |
| 2026-04-18 22:51 | 43.50811 | 53.74412 | 33963 ft | 469 kts | 282° |
| 2026-04-18 22:51 | 43.52079 | 53.65594 | 33955 ft | 469 kts | 281° |
| 2026-04-18 22:52 | 43.53327 | 53.56862 | 33960 ft | 464 kts | 281° |
| 2026-04-18 22:52 | 43.54568 | 53.48140 | 33953 ft | 463 kts | 281° |
| 2026-04-18 22:53 | 43.55804 | 53.39410 | 33965 ft | 463 kts | 281° |
| 2026-04-18 22:53 | 43.57032 | 53.30690 | 33965 ft | 464 kts | 281° |
| 2026-04-18 22:54 | 43.58261 | 53.21944 | 33964 ft | 464 kts | 281° |
| 2026-04-18 22:54 | 43.59481 | 53.13264 | 33958 ft | 465 kts | 281° |
| 2026-04-18 22:55 | 43.60706 | 53.04496 | 33944 ft | 464 kts | 281° |
| 2026-04-18 22:55 | 43.61920 | 52.95747 | 33943 ft | 465 kts | 280° |
| 2026-04-18 22:56 | 43.63126 | 52.86995 | 33934 ft | 464 kts | 280° |
| 2026-04-18 22:56 | 43.64329 | 52.78212 | 33929 ft | 464 kts | 279° |
| 2026-04-18 22:57 | 43.64320 | 52.69395 | 33924 ft | 465 kts | 260° |
| 2026-04-18 22:57 | 43.62052 | 52.61017 | 33907 ft | 471 kts | 242° |
| 2026-04-18 22:58 | 43.58198 | 52.53652 | 33920 ft | 473 kts | 237° |
| 2026-04-18 22:58 | 43.54296 | 52.46349 | 33910 ft | 473 kts | 237° |
| 2026-04-18 22:59 | 43.50397 | 52.39077 | 33903 ft | 472 kts | 236° |
| 2026-04-18 22:59 | 43.46512 | 52.31860 | 33894 ft | 471 kts | 236° |
| 2026-04-18 23:00 | 43.42598 | 52.24610 | 33888 ft | 471 kts | 236° |
| 2026-04-18 23:00 | 43.38697 | 52.17402 | 33880 ft | 470 kts | 236° |
| 2026-04-18 23:01 | 43.34783 | 52.10189 | 33877 ft | 469 kts | 236° |
| 2026-04-18 23:01 | 43.30878 | 52.03009 | 33872 ft | 469 kts | 236° |
| 2026-04-18 23:02 | 43.26972 | 51.95844 | 33862 ft | 468 kts | 236° |
| 2026-04-18 23:02 | 43.23088 | 51.88736 | 33856 ft | 467 kts | 236° |
| 2026-04-18 23:03 | 43.19176 | 51.81596 | 33850 ft | 467 kts | 236° |
| 2026-04-18 23:03 | 43.15271 | 51.74485 | 33845 ft | 466 kts | 236° |
| 2026-04-18 23:04 | 43.11369 | 51.67396 | 33840 ft | 466 kts | 236° |
| 2026-04-18 23:04 | 43.07488 | 51.60362 | 33834 ft | 466 kts | 236° |
| 2026-04-18 23:05 | 43.03581 | 51.53298 | 33826 ft | 465 kts | 235° |
| 2026-04-18 23:05 | 42.99677 | 51.46256 | 33813 ft | 465 kts | 235° |
| 2026-04-18 23:06 | 42.95771 | 51.39227 | 33807 ft | 464 kts | 235° |
| 2026-04-18 23:06 | 42.91864 | 51.32213 | 33811 ft | 464 kts | 235° |
| 2026-04-18 23:07 | 42.87985 | 51.25266 | 33805 ft | 463 kts | 235° |
| 2026-04-18 23:07 | 42.84078 | 51.18285 | 33799 ft | 463 kts | 234° |
| 2026-04-18 23:08 | 42.80167 | 51.11315 | 33801 ft | 463 kts | 234° |
| 2026-04-18 23:08 | 42.76257 | 51.04361 | 33795 ft | 462 kts | 234° |
| 2026-04-18 23:09 | 42.72343 | 50.97417 | 33788 ft | 462 kts | 234° |
| 2026-04-18 23:09 | 42.68428 | 50.90487 | 33785 ft | 461 kts | 234° |
| 2026-04-18 23:10 | 42.64514 | 50.83574 | 33777 ft | 461 kts | 234° |
| 2026-04-18 23:10 | 42.60595 | 50.76670 | 33771 ft | 461 kts | 234° |
| 2026-04-18 23:11 | 42.56680 | 50.69788 | 33770 ft | 460 kts | 234° |
| 2026-04-18 23:11 | 42.52790 | 50.62966 | 33763 ft | 460 kts | 233° |
| 2026-04-18 23:12 | 42.48877 | 50.56119 | 33758 ft | 459 kts | 233° |
| 2026-04-18 23:12 | 42.44968 | 50.49291 | 33752 ft | 458 kts | 233° |
| 2026-04-18 23:13 | 42.41135 | 50.42413 | 33747 ft | 457 kts | 236° |
| 2026-04-18 23:13 | 42.37480 | 50.35385 | 33742 ft | 456 kts | 236° |
| 2026-04-18 23:14 | 42.33816 | 50.28404 | 33738 ft | 455 kts | 235° |
| 2026-04-18 23:14 | 42.30133 | 50.21458 | 33731 ft | 454 kts | 235° |
| 2026-04-18 23:15 | 42.26452 | 50.14542 | 33719 ft | 453 kts | 235° |
| 2026-04-18 23:15 | 42.22773 | 50.07644 | 33718 ft | 452 kts | 235° |
| 2026-04-18 23:16 | 42.19095 | 50.00764 | 33708 ft | 451 kts | 235° |
| 2026-04-18 23:16 | 42.15422 | 49.93909 | 33702 ft | 450 kts | 234° |
| 2026-04-18 23:17 | 42.11773 | 49.87113 | 33692 ft | 449 kts | 234° |
| 2026-04-18 23:17 | 42.08103 | 49.80295 | 33689 ft | 449 kts | 234° |
| 2026-04-18 23:18 | 42.04431 | 49.73488 | 33674 ft | 449 kts | 234° |
| 2026-04-18 23:18 | 42.00764 | 49.66705 | 33663 ft | 448 kts | 234° |
| 2026-04-18 23:19 | 41.97093 | 49.59931 | 33656 ft | 447 kts | 234° |
| 2026-04-18 23:19 | 41.93447 | 49.53218 | 33649 ft | 447 kts | 234° |
| 2026-04-18 23:20 | 41.89781 | 49.46481 | 33640 ft | 447 kts | 234° |
| 2026-04-18 23:20 | 41.86106 | 49.39745 | 33630 ft | 446 kts | 234° |
| 2026-04-18 23:21 | 41.82439 | 49.33038 | 33625 ft | 446 kts | 234° |
| 2026-04-18 23:21 | 41.78863 | 49.26305 | 33619 ft | 445 kts | 236° |
| 2026-04-18 23:22 | 41.75456 | 49.19329 | 33612 ft | 445 kts | 236° |
| 2026-04-18 23:23 | 41.70356 | 49.09023 | 33599 ft | 444 kts | 236° |
| 2026-04-18 23:23 | 41.66921 | 49.02156 | 33597 ft | 443 kts | 236° |
| 2026-04-18 23:24 | 41.64072 | 48.96477 | 33598 ft | 442 kts | 236° |
| 2026-04-18 23:24 | 41.60637 | 48.89642 | 33580 ft | 442 kts | 236° |
| 2026-04-18 23:25 | 41.57207 | 48.82829 | 33587 ft | 441 kts | 236° |
| 2026-04-18 23:25 | 41.53798 | 48.76076 | 33586 ft | 442 kts | 235° |
| 2026-04-18 23:26 | 41.50273 | 48.69348 | 33601 ft | 441 kts | 233° |
| 2026-04-18 23:26 | 41.46562 | 48.62822 | 33603 ft | 441 kts | 232° |
| 2026-04-18 23:27 | 41.42860 | 48.56272 | 33606 ft | 443 kts | 233° |
| 2026-04-18 23:27 | 41.39234 | 48.49698 | 33614 ft | 443 kts | 233° |
| 2026-04-18 23:28 | 41.35623 | 48.43027 | 33639 ft | 444 kts | 233° |
| 2026-04-18 23:28 | 41.31999 | 48.36371 | 33640 ft | 445 kts | 233° |
| 2026-04-18 23:29 | 41.28356 | 48.29710 | 33657 ft | 446 kts | 233° |
| 2026-04-18 23:29 | 41.24697 | 48.23037 | 33664 ft | 447 kts | 232° |
| 2026-04-18 23:30 | 41.21018 | 48.16342 | 33699 ft | 448 kts | 233° |
| 2026-04-18 23:30 | 41.17330 | 48.09645 | 33719 ft | 449 kts | 232° |
| 2026-04-18 23:31 | 41.13892 | 48.02736 | 33737 ft | 451 kts | 242° |
| 2026-04-18 23:31 | 41.12224 | 47.94682 | 33750 ft | 460 kts | 260° |
| 2026-04-18 23:32 | 41.12760 | 47.86168 | 33745 ft | 473 kts | 276° |
| 2026-04-18 23:32 | 41.14130 | 47.77631 | 33750 ft | 473 kts | 275° |
| 2026-04-18 23:33 | 41.15468 | 47.69060 | 33765 ft | 475 kts | 275° |
| 2026-04-18 23:33 | 41.16790 | 47.60528 | 33770 ft | 472 kts | 275° |
| 2026-04-18 23:34 | 41.18108 | 47.51968 | 33779 ft | 473 kts | 275° |
| 2026-04-18 23:34 | 41.19414 | 47.43446 | 33792 ft | 473 kts | 275° |
| 2026-04-18 23:35 | 41.20719 | 47.34897 | 33806 ft | 473 kts | 275° |
| 2026-04-18 23:35 | 41.22023 | 47.26329 | 33815 ft | 473 kts | 275° |
| 2026-04-18 23:36 | 41.23317 | 47.17761 | 33823 ft | 472 kts | 275° |
| 2026-04-18 23:36 | 41.24605 | 47.09188 | 33836 ft | 473 kts | 275° |
| 2026-04-18 23:37 | 41.25887 | 47.00609 | 33840 ft | 473 kts | 274° |
| 2026-04-18 23:37 | 41.27153 | 46.92084 | 33848 ft | 473 kts | 274° |
| 2026-04-18 23:38 | 41.28423 | 46.83492 | 33869 ft | 474 kts | 274° |
| 2026-04-18 23:38 | 41.29690 | 46.74885 | 33876 ft | 474 kts | 274° |
| 2026-04-18 23:39 | 41.30914 | 46.66263 | 33876 ft | 474 kts | 273° |
| 2026-04-18 23:39 | 41.32113 | 46.57643 | 33894 ft | 473 kts | 273° |
| 2026-04-18 23:40 | 41.33313 | 46.49014 | 33878 ft | 474 kts | 273° |
| 2026-04-18 23:40 | 41.34509 | 46.40387 | 33875 ft | 474 kts | 273° |
| 2026-04-18 23:41 | 41.35690 | 46.31814 | 33862 ft | 474 kts | 272° |
| 2026-04-18 23:41 | 41.36873 | 46.23175 | 33859 ft | 474 kts | 272° |
| 2026-04-18 23:42 | 41.38049 | 46.14532 | 33859 ft | 475 kts | 272° |
| 2026-04-18 23:42 | 41.39221 | 46.05873 | 33854 ft | 475 kts | 272° |
| 2026-04-18 23:43 | 41.40386 | 45.97214 | 33851 ft | 475 kts | 272° |
| 2026-04-18 23:43 | 41.41547 | 45.88530 | 33848 ft | 476 kts | 272° |
| 2026-04-18 23:44 | 41.42697 | 45.79883 | 33849 ft | 478 kts | 271° |
| 2026-04-18 23:44 | 41.43851 | 45.71152 | 33847 ft | 478 kts | 271° |
| 2026-04-18 23:45 | 41.44997 | 45.62425 | 33844 ft | 478 kts | 271° |
| 2026-04-18 23:45 | 41.46139 | 45.53674 | 33843 ft | 478 kts | 271° |
| 2026-04-18 23:46 | 41.47267 | 45.44986 | 33843 ft | 479 kts | 271° |
| 2026-04-18 23:46 | 41.48371 | 45.36226 | 33838 ft | 476 kts | 269° |
| 2026-04-18 23:47 | 41.49081 | 45.27467 | 33839 ft | 475 kts | 268° |
| 2026-04-18 23:47 | 41.49810 | 45.18704 | 33851 ft | 475 kts | 268° |
| 2026-04-18 23:48 | 41.50526 | 45.09941 | 33854 ft | 476 kts | 268° |
| 2026-04-18 23:48 | 41.51232 | 45.01146 | 33848 ft | 476 kts | 268° |
| 2026-04-18 23:49 | 41.51928 | 44.92392 | 33845 ft | 476 kts | 269° |
| 2026-04-18 23:49 | 41.52623 | 44.83580 | 33854 ft | 477 kts | 269° |
| 2026-04-18 23:50 | 41.53310 | 44.74756 | 33860 ft | 478 kts | 269° |
| 2026-04-18 23:50 | 41.53993 | 44.65922 | 33861 ft | 479 kts | 269° |
| 2026-04-18 23:51 | 41.54670 | 44.57067 | 33861 ft | 479 kts | 270° |
| 2026-04-18 23:51 | 41.55335 | 44.48263 | 33862 ft | 480 kts | 270° |
| 2026-04-18 23:52 | 41.55999 | 44.39395 | 33858 ft | 480 kts | 270° |
| 2026-04-18 23:52 | 41.56658 | 44.30468 | 34280 ft | 484 kts | 270° |
| 2026-04-18 23:52 | 41.56988 | 44.26000 | 34862 ft | 483 kts | 270° |
| 2026-04-18 23:53 | 41.57208 | 44.21545 | 35409 ft | 478 kts | 266° |
| 2026-04-18 23:53 | 41.57214 | 44.17118 | 35909 ft | 477 kts | 265° |
| 2026-04-18 23:53 | 41.57219 | 44.12688 | 36443 ft | 476 kts | 265° |
| 2026-04-18 23:53 | 41.57232 | 44.08268 | 36933 ft | 476 kts | 265° |
| 2026-04-18 23:54 | 41.57247 | 44.03853 | 37419 ft | 475 kts | 265° |
| 2026-04-18 23:54 | 41.57259 | 43.99493 | 37774 ft | 477 kts | 265° |
| 2026-04-18 23:54 | 41.57267 | 43.95047 | 37832 ft | 477 kts | 265° |
| 2026-04-18 23:55 | 41.57279 | 43.86274 | 37822 ft | 474 kts | 265° |
| 2026-04-18 23:55 | 41.57278 | 43.77446 | 37812 ft | 476 kts | 265° |
| 2026-04-18 23:56 | 41.57273 | 43.68593 | 37811 ft | 477 kts | 265° |
| 2026-04-18 23:56 | 41.57261 | 43.59727 | 37817 ft | 478 kts | 265° |
| 2026-04-18 23:57 | 41.57243 | 43.50845 | 37815 ft | 479 kts | 265° |
| 2026-04-18 23:57 | 41.57217 | 43.41991 | 37812 ft | 479 kts | 266° |
| 2026-04-18 23:58 | 41.57185 | 43.33085 | 37815 ft | 480 kts | 266° |
| 2026-04-18 23:58 | 41.57146 | 43.24159 | 37807 ft | 480 kts | 266° |
| 2026-04-18 23:59 | 41.57102 | 43.15235 | 37807 ft | 480 kts | 266° |
| 2026-04-18 23:59 | 41.57048 | 43.06308 | 37815 ft | 481 kts | 266° |
| 2026-04-19 00:00 | 41.56986 | 42.97371 | 37806 ft | 481 kts | 266° |
| 2026-04-19 00:00 | 41.56919 | 42.88452 | 37814 ft | 480 kts | 266° |
| 2026-04-19 00:01 | 41.56845 | 42.79546 | 37816 ft | 479 kts | 266° |
| 2026-04-19 00:01 | 41.56765 | 42.70642 | 37810 ft | 479 kts | 266° |
| 2026-04-19 00:02 | 41.56676 | 42.61705 | 38347 ft | 482 kts | 266° |
| 2026-04-19 00:02 | 41.56629 | 42.57294 | 38759 ft | 481 kts | 266° |
| 2026-04-19 00:02 | 41.56582 | 42.52834 | 39185 ft | 480 kts | 266° |
| 2026-04-19 00:02 | 41.56532 | 42.48366 | 39604 ft | 480 kts | 266° |
| 2026-04-19 00:03 | 41.56480 | 42.43893 | 39833 ft | 483 kts | 266° |
| 2026-04-19 00:03 | 41.56373 | 42.35004 | 39841 ft | 471 kts | 266° |
| 2026-04-19 00:04 | 41.56259 | 42.26214 | 39868 ft | 476 kts | 266° |
| 2026-04-19 00:04 | 41.56136 | 42.17431 | 39866 ft | 476 kts | 266° |
| 2026-04-19 00:05 | 41.56009 | 42.08559 | 39877 ft | 477 kts | 266° |
| 2026-04-19 00:05 | 41.55874 | 41.99700 | 39877 ft | 477 kts | 266° |
| 2026-04-19 00:06 | 41.55733 | 41.90840 | 39890 ft | 478 kts | 266° |
| 2026-04-19 00:06 | 41.55587 | 41.82035 | 39886 ft | 477 kts | 266° |
| 2026-04-19 00:07 | 41.55430 | 41.73121 | 39885 ft | 477 kts | 266° |
| 2026-04-19 00:07 | 41.55269 | 41.64313 | 39887 ft | 478 kts | 266° |
| 2026-04-19 00:08 | 41.55100 | 41.55456 | 39886 ft | 478 kts | 266° |
| 2026-04-19 00:08 | 41.54928 | 41.46578 | 39887 ft | 478 kts | 266° |
| 2026-04-19 00:09 | 41.55292 | 41.37687 | 39886 ft | 481 kts | 272° |
| 2026-04-19 00:09 | 41.55827 | 41.28790 | 39885 ft | 481 kts | 271° |
| 2026-04-19 00:10 | 41.56339 | 41.19883 | 39890 ft | 481 kts | 271° |
| 2026-04-19 00:10 | 41.56840 | 41.10978 | 39892 ft | 481 kts | 271° |
| 2026-04-19 00:11 | 41.57334 | 41.02047 | 39889 ft | 481 kts | 271° |
| 2026-04-19 00:11 | 41.57820 | 40.93138 | 39890 ft | 481 kts | 271° |
| 2026-04-19 00:12 | 41.58298 | 40.84270 | 39890 ft | 481 kts | 271° |
| 2026-04-19 00:12 | 41.58771 | 40.75353 | 39887 ft | 481 kts | 271° |
| 2026-04-19 00:13 | 41.59237 | 40.66427 | 39886 ft | 481 kts | 271° |
| 2026-04-19 00:13 | 41.59619 | 40.59017 | 39888 ft | 481 kts | 271° |
| 2026-04-19 00:14 | 41.60073 | 40.50088 | 39886 ft | 481 kts | 271° |
| 2026-04-19 00:14 | 41.60592 | 40.39714 | 39880 ft | 481 kts | 271° |
| 2026-04-19 00:15 | 41.60960 | 40.32245 | 39882 ft | 481 kts | 271° |
| 2026-04-19 00:15 | 41.61392 | 40.23329 | 39877 ft | 481 kts | 271° |
| 2026-04-19 00:16 | 41.61815 | 40.14465 | 39878 ft | 481 kts | 271° |
| 2026-04-19 00:16 | 41.62234 | 40.05551 | 39877 ft | 481 kts | 271° |
| 2026-04-19 00:17 | 41.62646 | 39.96628 | 39875 ft | 481 kts | 271° |
| 2026-04-19 00:17 | 41.63051 | 39.87707 | 39869 ft | 481 kts | 271° |
| 2026-04-19 00:18 | 41.63449 | 39.78789 | 39867 ft | 481 kts | 271° |
| 2026-04-19 00:18 | 41.63840 | 39.69868 | 39865 ft | 481 kts | 271° |
| 2026-04-19 00:19 | 41.64222 | 39.60998 | 39868 ft | 481 kts | 271° |
| 2026-04-19 00:19 | 41.64599 | 39.52064 | 39866 ft | 481 kts | 271° |
| 2026-04-19 00:20 | 41.64968 | 39.43122 | 39867 ft | 481 kts | 271° |
| 2026-04-19 00:20 | 41.65333 | 39.34181 | 39874 ft | 481 kts | 271° |
| 2026-04-19 00:21 | 41.65687 | 39.25295 | 39868 ft | 482 kts | 271° |
| 2026-04-19 00:21 | 41.66037 | 39.16336 | 39876 ft | 482 kts | 270° |
| 2026-04-19 00:22 | 41.66380 | 39.07373 | 39874 ft | 482 kts | 270° |
| 2026-04-19 00:22 | 41.66717 | 38.98408 | 39876 ft | 482 kts | 270° |
| 2026-04-19 00:23 | 41.67046 | 38.89440 | 39870 ft | 483 kts | 270° |
| 2026-04-19 00:23 | 41.67369 | 38.80464 | 39864 ft | 482 kts | 270° |
| 2026-04-19 00:24 | 41.67682 | 38.71548 | 39863 ft | 482 kts | 270° |
| 2026-04-19 00:24 | 41.67991 | 38.62578 | 39861 ft | 482 kts | 270° |
| 2026-04-19 00:25 | 41.68292 | 38.53621 | 39861 ft | 482 kts | 270° |
| 2026-04-19 00:25 | 41.68586 | 38.44662 | 39863 ft | 481 kts | 270° |
| 2026-04-19 00:26 | 41.68873 | 38.35709 | 39863 ft | 481 kts | 270° |
| 2026-04-19 00:26 | 41.69153 | 38.26764 | 39862 ft | 481 kts | 270° |
| 2026-04-19 00:27 | 41.69424 | 38.17876 | 39863 ft | 481 kts | 270° |
| 2026-04-19 00:27 | 41.69690 | 38.08913 | 39870 ft | 481 kts | 270° |
| 2026-04-19 00:28 | 41.69950 | 37.99958 | 39879 ft | 481 kts | 270° |
| 2026-04-19 00:28 | 41.70202 | 37.91006 | 39880 ft | 482 kts | 270° |
| 2026-04-19 00:29 | 41.70447 | 37.82039 | 39878 ft | 482 kts | 270° |
| 2026-04-19 00:29 | 41.70686 | 37.73078 | 39872 ft | 482 kts | 270° |
| 2026-04-19 00:30 | 41.70918 | 37.64178 | 39870 ft | 481 kts | 270° |
| 2026-04-19 00:30 | 41.71135 | 37.55232 | 39883 ft | 481 kts | 270° |
| 2026-04-19 00:31 | 41.71353 | 37.46273 | 39891 ft | 482 kts | 270° |
| 2026-04-19 00:31 | 41.71565 | 37.37320 | 39879 ft | 481 kts | 270° |
| 2026-04-19 00:32 | 41.71768 | 37.28381 | 39876 ft | 480 kts | 270° |
| 2026-04-19 00:32 | 41.71964 | 37.19423 | 39881 ft | 481 kts | 270° |
| 2026-04-19 00:33 | 41.72152 | 37.10486 | 39871 ft | 480 kts | 270° |
| 2026-04-19 00:33 | 41.72334 | 37.01546 | 39873 ft | 480 kts | 270° |
| 2026-04-19 00:34 | 41.72593 | 36.88136 | 39871 ft | 480 kts | 270° |
| 2026-04-19 00:34 | 41.72756 | 36.79248 | 39870 ft | 481 kts | 269° |
| 2026-04-19 00:35 | 41.72914 | 36.70292 | 39870 ft | 481 kts | 269° |
| 2026-04-19 00:35 | 41.73064 | 36.61345 | 39872 ft | 481 kts | 269° |
| 2026-04-19 00:36 | 41.73208 | 36.52386 | 39871 ft | 481 kts | 269° |
| 2026-04-19 00:36 | 41.73345 | 36.43435 | 39881 ft | 481 kts | 269° |
| 2026-04-19 00:37 | 41.73475 | 36.34482 | 39880 ft | 480 kts | 269° |
| 2026-04-19 00:37 | 41.73597 | 36.25584 | 39876 ft | 481 kts | 269° |
| 2026-04-19 00:38 | 41.73712 | 36.16625 | 39878 ft | 481 kts | 269° |
| 2026-04-19 00:38 | 41.73822 | 36.07672 | 39879 ft | 480 kts | 269° |
| 2026-04-19 00:39 | 41.73923 | 35.98730 | 39872 ft | 481 kts | 269° |
| 2026-04-19 00:39 | 41.74018 | 35.89776 | 39880 ft | 482 kts | 269° |
| 2026-04-19 00:40 | 41.74106 | 35.80812 | 39884 ft | 481 kts | 269° |
| 2026-04-19 00:40 | 41.74188 | 35.71858 | 39886 ft | 481 kts | 269° |
| 2026-04-19 00:41 | 41.74262 | 35.62906 | 39885 ft | 481 kts | 269° |
| 2026-04-19 00:41 | 41.74329 | 35.54009 | 39888 ft | 481 kts | 269° |
| 2026-04-19 00:42 | 41.74389 | 35.45038 | 39895 ft | 482 kts | 269° |
| 2026-04-19 00:42 | 41.74442 | 35.36063 | 39896 ft | 481 kts | 269° |
| 2026-04-19 00:43 | 41.74489 | 35.27105 | 39902 ft | 481 kts | 268° |
| 2026-04-19 00:43 | 41.74528 | 35.18129 | 39906 ft | 482 kts | 269° |
| 2026-04-19 00:44 | 41.74561 | 35.09146 | 39913 ft | 482 kts | 268° |
| 2026-04-19 00:44 | 41.74586 | 35.00233 | 39914 ft | 482 kts | 268° |
| 2026-04-19 00:45 | 41.74605 | 34.91261 | 39918 ft | 482 kts | 268° |
| 2026-04-19 00:45 | 41.74616 | 34.82280 | 39922 ft | 482 kts | 268° |
| 2026-04-19 00:46 | 41.74621 | 34.73302 | 39924 ft | 482 kts | 268° |
| 2026-04-19 00:46 | 41.74693 | 34.64323 | 39925 ft | 482 kts | 272° |
| 2026-04-19 00:47 | 41.75682 | 34.55420 | 39934 ft | 486 kts | 281° |
| 2026-04-19 00:47 | 41.77617 | 34.46717 | 39935 ft | 487 kts | 285° |
| 2026-04-19 00:48 | 41.79634 | 34.38108 | 39935 ft | 487 kts | 284° |
| 2026-04-19 00:48 | 41.81651 | 34.29435 | 39938 ft | 487 kts | 284° |
| 2026-04-19 00:49 | 41.83662 | 34.20764 | 39946 ft | 488 kts | 284° |
| 2026-04-19 00:49 | 41.85672 | 34.12075 | 39954 ft | 487 kts | 284° |
| 2026-04-19 00:50 | 41.87674 | 34.03380 | 39957 ft | 488 kts | 284° |
| 2026-04-19 00:50 | 41.89671 | 33.94675 | 39958 ft | 487 kts | 284° |
| 2026-04-19 00:51 | 41.91663 | 33.85960 | 39950 ft | 487 kts | 284° |
| 2026-04-19 00:51 | 41.93633 | 33.77304 | 39952 ft | 488 kts | 284° |
| 2026-04-19 00:52 | 41.95601 | 33.68596 | 39964 ft | 487 kts | 283° |
| 2026-04-19 00:52 | 41.97303 | 33.59796 | 39962 ft | 486 kts | 282° |
| 2026-04-19 00:53 | 41.98952 | 33.50972 | 39969 ft | 487 kts | 282° |
| 2026-04-19 00:53 | 42.00629 | 33.42161 | 39970 ft | 485 kts | 282° |
| 2026-04-19 00:54 | 42.02308 | 33.33358 | 39972 ft | 486 kts | 282° |
| 2026-04-19 00:54 | 42.03970 | 33.24608 | 39973 ft | 485 kts | 282° |
| 2026-04-19 00:55 | 42.05641 | 33.15764 | 39972 ft | 485 kts | 282° |
| 2026-04-19 00:55 | 42.07286 | 33.07026 | 39973 ft | 485 kts | 282° |
| 2026-04-19 00:56 | 42.09058 | 32.98268 | 39971 ft | 485 kts | 283° |
| 2026-04-19 00:56 | 42.10876 | 32.89512 | 39976 ft | 485 kts | 283° |
| 2026-04-19 00:57 | 42.12665 | 32.80758 | 39975 ft | 485 kts | 283° |
| 2026-04-19 00:57 | 42.14441 | 32.71991 | 39977 ft | 485 kts | 283° |
| 2026-04-19 00:58 | 42.16208 | 32.63228 | 39976 ft | 485 kts | 283° |
| 2026-04-19 00:58 | 42.17968 | 32.54452 | 39978 ft | 485 kts | 283° |
| 2026-04-19 00:59 | 42.19709 | 32.45727 | 39978 ft | 485 kts | 283° |
| 2026-04-19 00:59 | 42.21457 | 32.36927 | 39976 ft | 485 kts | 283° |
| 2026-04-19 01:00 | 42.23200 | 32.28115 | 39974 ft | 485 kts | 283° |
| 2026-04-19 01:00 | 42.24641 | 32.20803 | 39981 ft | 486 kts | 283° |
| 2026-04-19 01:01 | 42.26366 | 32.11981 | 39977 ft | 486 kts | 283° |
| 2026-04-19 01:01 | 42.28368 | 32.01727 | 39977 ft | 486 kts | 283° |
| 2026-04-19 01:02 | 42.29812 | 31.94330 | 39978 ft | 486 kts | 283° |
| 2026-04-19 01:02 | 42.31528 | 31.85494 | 39977 ft | 486 kts | 283° |
| 2026-04-19 01:03 | 42.33228 | 31.76700 | 39980 ft | 486 kts | 282° |
| 2026-04-19 01:03 | 42.34930 | 31.67848 | 39982 ft | 486 kts | 282° |
| 2026-04-19 01:04 | 42.36625 | 31.58999 | 39984 ft | 486 kts | 282° |
| 2026-04-19 01:04 | 42.38312 | 31.50146 | 39985 ft | 486 kts | 282° |
| 2026-04-19 01:05 | 42.39996 | 31.41273 | 39987 ft | 486 kts | 282° |
| 2026-04-19 01:05 | 42.41659 | 31.32465 | 39988 ft | 486 kts | 282° |
| 2026-04-19 01:06 | 42.43325 | 31.23602 | 39990 ft | 486 kts | 282° |
| 2026-04-19 01:06 | 42.44986 | 31.14728 | 39990 ft | 486 kts | 282° |
| 2026-04-19 01:07 | 42.46638 | 31.05856 | 39991 ft | 485 kts | 282° |
| 2026-04-19 01:07 | 42.48278 | 30.96992 | 39994 ft | 486 kts | 282° |
| 2026-04-19 01:08 | 42.49916 | 30.88100 | 39992 ft | 486 kts | 282° |
| 2026-04-19 01:08 | 42.51545 | 30.79213 | 39997 ft | 486 kts | 282° |
| 2026-04-19 01:09 | 42.53169 | 30.70315 | 39996 ft | 486 kts | 282° |
| 2026-04-19 01:09 | 42.54774 | 30.61475 | 40000 ft | 486 kts | 282° |
| 2026-04-19 01:10 | 42.56386 | 30.52555 | 40003 ft | 486 kts | 282° |
| 2026-04-19 01:10 | 42.57991 | 30.43633 | 40003 ft | 487 kts | 282° |
| 2026-04-19 01:11 | 42.59629 | 30.34717 | 40001 ft | 486 kts | 285° |
| 2026-04-19 01:11 | 42.62117 | 30.26172 | 40004 ft | 488 kts | 295° |
| 2026-04-19 01:12 | 42.65670 | 30.18335 | 40005 ft | 493 kts | 305° |
| 2026-04-19 01:12 | 42.69873 | 30.10951 | 40007 ft | 493 kts | 306° |
| 2026-04-19 01:13 | 42.74052 | 30.03551 | 40008 ft | 493 kts | 306° |
| 2026-04-19 01:13 | 42.78232 | 29.96139 | 40010 ft | 494 kts | 306° |
| 2026-04-19 01:14 | 42.82413 | 29.88710 | 40014 ft | 494 kts | 306° |
| 2026-04-19 01:14 | 42.86593 | 29.81264 | 40012 ft | 494 kts | 306° |
| 2026-04-19 01:15 | 42.90744 | 29.73852 | 40015 ft | 494 kts | 306° |
| 2026-04-19 01:15 | 42.94924 | 29.66369 | 40014 ft | 494 kts | 306° |
| 2026-04-19 01:16 | 42.99088 | 29.58896 | 40016 ft | 495 kts | 306° |
| 2026-04-19 01:16 | 43.03257 | 29.51396 | 40015 ft | 495 kts | 306° |
| 2026-04-19 01:17 | 43.07414 | 29.43899 | 40016 ft | 494 kts | 306° |
| 2026-04-19 01:17 | 43.11547 | 29.36424 | 40017 ft | 495 kts | 306° |
| 2026-04-19 01:18 | 43.15697 | 29.28902 | 40019 ft | 495 kts | 306° |
| 2026-04-19 01:18 | 43.19842 | 29.21367 | 40022 ft | 495 kts | 306° |
| 2026-04-19 01:19 | 43.23985 | 29.13818 | 40025 ft | 495 kts | 306° |
| 2026-04-19 01:19 | 43.28122 | 29.06260 | 40023 ft | 495 kts | 306° |
| 2026-04-19 01:20 | 43.32250 | 28.98701 | 40027 ft | 494 kts | 306° |
| 2026-04-19 01:20 | 43.36370 | 28.91135 | 40028 ft | 494 kts | 306° |
| 2026-04-19 01:21 | 43.40487 | 28.83556 | 40027 ft | 494 kts | 306° |
| 2026-04-19 01:21 | 43.44572 | 28.76017 | 40027 ft | 495 kts | 306° |
| 2026-04-19 01:22 | 43.48683 | 28.68411 | 40033 ft | 494 kts | 306° |
| 2026-04-19 01:22 | 43.52779 | 28.60811 | 40030 ft | 495 kts | 306° |
| 2026-04-19 01:23 | 43.56876 | 28.53191 | 40032 ft | 495 kts | 306° |
| 2026-04-19 01:23 | 43.60965 | 28.45565 | 40033 ft | 494 kts | 306° |
| 2026-04-19 01:24 | 43.65051 | 28.37925 | 40032 ft | 494 kts | 306° |
| 2026-04-19 01:24 | 43.69132 | 28.30275 | 40033 ft | 494 kts | 306° |
| 2026-04-19 01:25 | 43.73207 | 28.22616 | 40029 ft | 494 kts | 306° |
| 2026-04-19 01:25 | 43.77247 | 28.15003 | 40028 ft | 493 kts | 306° |
| 2026-04-19 01:26 | 43.81304 | 28.07339 | 40031 ft | 493 kts | 306° |
| 2026-04-19 01:26 | 43.85352 | 27.99671 | 40034 ft | 493 kts | 306° |
| 2026-04-19 01:27 | 43.89390 | 27.92002 | 40034 ft | 493 kts | 306° |
| 2026-04-19 01:27 | 43.93437 | 27.84295 | 40039 ft | 493 kts | 306° |
| 2026-04-19 01:28 | 43.97448 | 27.76637 | 40041 ft | 494 kts | 306° |
| 2026-04-19 01:28 | 44.01486 | 27.68907 | 40041 ft | 494 kts | 306° |
| 2026-04-19 01:29 | 44.05525 | 27.61153 | 40044 ft | 495 kts | 306° |
| 2026-04-19 01:29 | 44.09562 | 27.53384 | 40041 ft | 495 kts | 306° |
| 2026-04-19 01:30 | 44.13568 | 27.45654 | 40042 ft | 495 kts | 306° |
| 2026-04-19 01:30 | 44.17593 | 27.37866 | 40045 ft | 495 kts | 306° |
| 2026-04-19 01:31 | 44.21620 | 27.30053 | 40044 ft | 495 kts | 306° |
| 2026-04-19 01:31 | 44.25635 | 27.22242 | 40046 ft | 495 kts | 306° |
| 2026-04-19 01:32 | 44.29614 | 27.14482 | 40047 ft | 495 kts | 306° |
| 2026-04-19 01:32 | 44.33609 | 27.06669 | 40046 ft | 495 kts | 306° |
| 2026-04-19 01:33 | 44.37604 | 26.98833 | 40053 ft | 494 kts | 306° |
| 2026-04-19 01:33 | 44.41587 | 26.91003 | 40050 ft | 494 kts | 306° |
| 2026-04-19 01:34 | 44.45559 | 26.83171 | 40054 ft | 493 kts | 306° |
| 2026-04-19 01:34 | 44.49525 | 26.75331 | 40051 ft | 493 kts | 306° |
| 2026-04-19 01:35 | 44.53492 | 26.67470 | 40052 ft | 493 kts | 306° |
| 2026-04-19 01:35 | 44.57407 | 26.59640 | 40055 ft | 493 kts | 304° |
| 2026-04-19 01:36 | 44.60832 | 26.51289 | 40064 ft | 494 kts | 297° |
| 2026-04-19 01:36 | 44.63756 | 26.42562 | 40064 ft | 494 kts | 297° |
| 2026-04-19 01:37 | 44.66717 | 26.33864 | 40070 ft | 493 kts | 297° |
| 2026-04-19 01:37 | 44.69660 | 26.25161 | 40068 ft | 493 kts | 297° |
| 2026-04-19 01:38 | 44.72588 | 26.16441 | 40070 ft | 493 kts | 297° |
| 2026-04-19 01:38 | 44.75501 | 26.07723 | 40070 ft | 492 kts | 297° |
| 2026-04-19 01:39 | 44.78409 | 25.98991 | 40068 ft | 492 kts | 296° |
| 2026-04-19 01:39 | 44.81309 | 25.90251 | 40070 ft | 492 kts | 296° |
| 2026-04-19 01:40 | 44.84202 | 25.81505 | 40069 ft | 492 kts | 296° |
| 2026-04-19 01:40 | 44.87072 | 25.72802 | 40071 ft | 493 kts | 296° |
| 2026-04-19 01:41 | 44.89958 | 25.64020 | 40072 ft | 494 kts | 296° |
| 2026-04-19 01:41 | 44.92847 | 25.55196 | 40073 ft | 495 kts | 296° |
| 2026-04-19 01:42 | 44.95732 | 25.46359 | 40076 ft | 496 kts | 296° |
| 2026-04-19 01:43 | 45.00035 | 25.33118 | 40067 ft | 496 kts | 296° |
| 2026-04-19 01:43 | 45.02904 | 25.24253 | 40072 ft | 496 kts | 296° |
| 2026-04-19 01:44 | 45.05771 | 25.15366 | 40075 ft | 496 kts | 296° |
| 2026-04-19 01:44 | 45.08624 | 25.06490 | 40080 ft | 496 kts | 296° |
| 2026-04-19 01:45 | 45.11468 | 24.97612 | 40080 ft | 495 kts | 296° |
| 2026-04-19 01:45 | 45.14308 | 24.88717 | 40085 ft | 494 kts | 296° |
| 2026-04-19 01:46 | 45.17117 | 24.79889 | 40083 ft | 494 kts | 296° |
| 2026-04-19 01:46 | 45.19935 | 24.71003 | 40086 ft | 493 kts | 296° |
| 2026-04-19 01:47 | 45.22740 | 24.62127 | 40089 ft | 492 kts | 297° |
| 2026-04-19 01:47 | 45.25530 | 24.53266 | 40090 ft | 491 kts | 297° |
| 2026-04-19 01:48 | 45.28300 | 24.44438 | 40093 ft | 490 kts | 297° |
| 2026-04-19 01:48 | 45.31045 | 24.35665 | 40093 ft | 489 kts | 297° |
| 2026-04-19 01:49 | 45.33792 | 24.26851 | 40093 ft | 488 kts | 297° |
| 2026-04-19 01:49 | 45.36541 | 24.18000 | 40092 ft | 488 kts | 297° |
| 2026-04-19 01:50 | 45.39279 | 24.09156 | 40101 ft | 488 kts | 297° |
| 2026-04-19 01:50 | 45.42006 | 24.00316 | 40095 ft | 487 kts | 297° |
| 2026-04-19 01:51 | 45.44265 | 23.92970 | 40102 ft | 487 kts | 297° |
| 2026-04-19 01:51 | 45.47413 | 23.82698 | 40104 ft | 487 kts | 297° |
| 2026-04-19 01:52 | 45.50113 | 23.73854 | 40104 ft | 486 kts | 297° |
| 2026-04-19 01:52 | 45.52351 | 23.66501 | 40105 ft | 486 kts | 297° |
| 2026-04-19 01:53 | 45.55033 | 23.57660 | 40107 ft | 485 kts | 297° |
| 2026-04-19 01:53 | 45.57704 | 23.48822 | 40113 ft | 485 kts | 297° |
| 2026-04-19 01:54 | 45.60369 | 23.39975 | 40116 ft | 485 kts | 296° |
| 2026-04-19 01:54 | 45.63024 | 23.31134 | 40116 ft | 484 kts | 296° |
| 2026-04-19 01:55 | 45.65654 | 23.22341 | 40117 ft | 484 kts | 296° |
| 2026-04-19 01:55 | 45.68295 | 23.13483 | 40117 ft | 484 kts | 296° |
| 2026-04-19 01:56 | 45.70923 | 23.04631 | 40120 ft | 484 kts | 296° |
| 2026-04-19 01:56 | 45.73545 | 22.95772 | 40119 ft | 483 kts | 296° |
| 2026-04-19 01:57 | 45.76162 | 22.86899 | 40114 ft | 483 kts | 296° |
| 2026-04-19 01:57 | 45.78770 | 22.78023 | 40114 ft | 483 kts | 296° |
| 2026-04-19 01:58 | 45.81372 | 22.69138 | 40113 ft | 483 kts | 296° |
| 2026-04-19 01:58 | 45.83966 | 22.60251 | 40111 ft | 483 kts | 296° |
| 2026-04-19 01:59 | 45.86537 | 22.51407 | 40111 ft | 483 kts | 296° |
| 2026-04-19 01:59 | 45.89115 | 22.42510 | 40113 ft | 483 kts | 296° |
| 2026-04-19 02:00 | 45.91686 | 22.33601 | 40109 ft | 483 kts | 296° |
| 2026-04-19 02:00 | 45.94245 | 22.24702 | 40104 ft | 482 kts | 296° |
| 2026-04-19 02:01 | 45.96805 | 22.15769 | 40097 ft | 483 kts | 296° |
| 2026-04-19 02:01 | 45.99350 | 22.06854 | 40104 ft | 482 kts | 295° |
| 2026-04-19 02:02 | 46.01887 | 21.97936 | 40102 ft | 481 kts | 295° |
| 2026-04-19 02:02 | 46.04415 | 21.89017 | 40105 ft | 481 kts | 295° |
| 2026-04-19 02:03 | 46.06921 | 21.80143 | 40101 ft | 481 kts | 295° |
| 2026-04-19 02:03 | 46.09432 | 21.71221 | 40102 ft | 481 kts | 295° |
| 2026-04-19 02:04 | 46.11936 | 21.62288 | 40096 ft | 480 kts | 295° |
| 2026-04-19 02:04 | 46.14432 | 21.53353 | 40101 ft | 480 kts | 295° |
| 2026-04-19 02:05 | 46.16921 | 21.44409 | 40102 ft | 480 kts | 295° |
| 2026-04-19 02:05 | 46.19405 | 21.35447 | 40102 ft | 481 kts | 295° |
| 2026-04-19 02:06 | 46.21870 | 21.26536 | 40105 ft | 481 kts | 295° |
| 2026-04-19 02:06 | 46.24348 | 21.17559 | 40103 ft | 480 kts | 295° |
| 2026-04-19 02:07 | 46.26826 | 21.08574 | 40100 ft | 480 kts | 296° |
| 2026-04-19 02:07 | 46.29639 | 20.99837 | 40097 ft | 479 kts | 298° |
| 2026-04-19 02:08 | 46.32508 | 20.91235 | 40093 ft | 479 kts | 298° |
| 2026-04-19 02:08 | 46.35359 | 20.82505 | 40087 ft | 479 kts | 297° |
| 2026-04-19 02:09 | 46.38181 | 20.73759 | 40091 ft | 479 kts | 297° |
| 2026-04-19 02:09 | 46.40993 | 20.65007 | 40088 ft | 479 kts | 297° |
| 2026-04-19 02:10 | 46.43796 | 20.56250 | 40090 ft | 479 kts | 297° |
| 2026-04-19 02:10 | 46.46595 | 20.47480 | 40088 ft | 479 kts | 297° |
| 2026-04-19 02:11 | 46.49387 | 20.38698 | 40086 ft | 479 kts | 297° |
| 2026-04-19 02:11 | 46.52175 | 20.29901 | 40088 ft | 479 kts | 297° |
| 2026-04-19 02:12 | 46.54954 | 20.21103 | 40092 ft | 479 kts | 297° |
| 2026-04-19 02:12 | 46.57729 | 20.12285 | 40091 ft | 479 kts | 296° |
| 2026-04-19 02:13 | 46.60475 | 20.03530 | 40096 ft | 479 kts | 296° |
| 2026-04-19 02:13 | 46.63235 | 19.94700 | 40101 ft | 479 kts | 296° |
| 2026-04-19 02:14 | 46.65985 | 19.85871 | 40107 ft | 479 kts | 296° |
| 2026-04-19 02:14 | 46.68733 | 19.77017 | 40101 ft | 479 kts | 296° |
| 2026-04-19 02:15 | 46.71468 | 19.68176 | 40107 ft | 479 kts | 296° |
| 2026-04-19 02:15 | 46.74200 | 19.59313 | 40100 ft | 479 kts | 296° |
| 2026-04-19 02:16 | 46.76905 | 19.50506 | 40102 ft | 479 kts | 296° |
| 2026-04-19 02:16 | 46.79622 | 19.41628 | 40103 ft | 479 kts | 296° |
| 2026-04-19 02:17 | 46.82335 | 19.32731 | 40104 ft | 479 kts | 295° |
| 2026-04-19 02:17 | 46.85035 | 19.23848 | 40099 ft | 478 kts | 295° |
| 2026-04-19 02:18 | 46.87727 | 19.14957 | 40099 ft | 478 kts | 295° |
| 2026-04-19 02:18 | 46.90394 | 19.06120 | 40092 ft | 478 kts | 295° |
| 2026-04-19 02:19 | 46.93073 | 18.97209 | 40106 ft | 478 kts | 295° |
| 2026-04-19 02:19 | 46.95736 | 18.88320 | 40102 ft | 477 kts | 295° |
| 2026-04-19 02:20 | 46.99708 | 18.75005 | 40087 ft | 477 kts | 295° |
| 2026-04-19 02:20 | 47.02356 | 18.66086 | 40090 ft | 477 kts | 295° |
| 2026-04-19 02:21 | 47.04997 | 18.57158 | 40101 ft | 478 kts | 295° |
| 2026-04-19 02:21 | 47.07630 | 18.48228 | 40103 ft | 477 kts | 294° |
| 2026-04-19 02:22 | 47.10257 | 18.39282 | 40099 ft | 477 kts | 294° |
| 2026-04-19 02:22 | 47.12877 | 18.30329 | 40103 ft | 477 kts | 294° |
| 2026-04-19 02:23 | 47.15489 | 18.21371 | 40100 ft | 477 kts | 294° |
| 2026-04-19 02:23 | 47.18091 | 18.12416 | 40097 ft | 477 kts | 294° |
| 2026-04-19 02:24 | 47.20688 | 18.03445 | 40099 ft | 477 kts | 294° |
| 2026-04-19 02:24 | 47.23279 | 17.94460 | 40100 ft | 476 kts | 294° |
| 2026-04-19 02:25 | 47.25859 | 17.85479 | 40101 ft | 476 kts | 294° |
| 2026-04-19 02:25 | 47.28432 | 17.76489 | 40101 ft | 476 kts | 294° |
| 2026-04-19 02:26 | 47.30979 | 17.67561 | 40102 ft | 475 kts | 294° |
| 2026-04-19 02:26 | 47.33534 | 17.58571 | 40103 ft | 475 kts | 293° |
| 2026-04-19 02:27 | 47.36081 | 17.49573 | 40102 ft | 475 kts | 293° |
| 2026-04-19 02:27 | 47.38623 | 17.40560 | 40103 ft | 475 kts | 293° |
| 2026-04-19 02:28 | 47.41154 | 17.31554 | 40101 ft | 475 kts | 293° |
| 2026-04-19 02:28 | 47.43677 | 17.22539 | 40099 ft | 475 kts | 293° |
| 2026-04-19 02:29 | 47.46192 | 17.13521 | 40095 ft | 475 kts | 293° |
| 2026-04-19 02:29 | 47.48699 | 17.04498 | 40094 ft | 475 kts | 293° |
| 2026-04-19 02:30 | 47.50857 | 16.96706 | 40091 ft | 475 kts | 293° |
| 2026-04-19 02:30 | 47.53356 | 16.87656 | 40093 ft | 475 kts | 292° |
| 2026-04-19 02:31 | 47.55834 | 16.78664 | 40092 ft | 475 kts | 292° |
| 2026-04-19 02:31 | 47.58118 | 16.69492 | 40091 ft | 475 kts | 290° |
| 2026-04-19 02:32 | 47.60359 | 16.60278 | 40091 ft | 475 kts | 290° |
| 2026-04-19 02:32 | 47.62606 | 16.51062 | 40094 ft | 475 kts | 290° |
| 2026-04-19 02:33 | 47.64829 | 16.41830 | 40098 ft | 475 kts | 290° |
| 2026-04-19 02:33 | 47.67040 | 16.32582 | 40104 ft | 474 kts | 290° |
| 2026-04-19 02:34 | 47.69235 | 16.23364 | 40107 ft | 475 kts | 290° |
| 2026-04-19 02:34 | 47.71415 | 16.14174 | 40111 ft | 474 kts | 290° |
| 2026-04-19 02:35 | 47.73601 | 16.04919 | 40115 ft | 474 kts | 290° |
| 2026-04-19 02:35 | 47.75776 | 15.95671 | 40114 ft | 474 kts | 290° |
| 2026-04-19 02:36 | 47.77948 | 15.86395 | 40120 ft | 474 kts | 289° |
| 2026-04-19 02:36 | 47.80107 | 15.77135 | 40121 ft | 474 kts | 289° |
| 2026-04-19 02:37 | 47.82264 | 15.67844 | 40120 ft | 474 kts | 289° |
| 2026-04-19 02:37 | 47.84410 | 15.58562 | 40123 ft | 474 kts | 289° |
| 2026-04-19 02:38 | 47.86190 | 15.50833 | 40118 ft | 474 kts | 289° |
| 2026-04-19 02:38 | 47.88668 | 15.40026 | 40115 ft | 474 kts | 289° |
| 2026-04-19 02:39 | 47.90482 | 15.32249 | 40107 ft | 474 kts | 291° |
| 2026-04-19 02:39 | 47.93041 | 15.23189 | 40111 ft | 473 kts | 293° |
| 2026-04-19 02:40 | 47.95602 | 15.14211 | 40106 ft | 473 kts | 292° |
| 2026-04-19 02:40 | 47.98123 | 15.05131 | 40107 ft | 473 kts | 292° |
| 2026-04-19 02:41 | 48.00623 | 14.96032 | 40105 ft | 473 kts | 292° |
| 2026-04-19 02:41 | 48.03117 | 14.86918 | 40110 ft | 473 kts | 292° |
| 2026-04-19 02:42 | 48.05602 | 14.77808 | 40104 ft | 473 kts | 292° |
| 2026-04-19 02:42 | 48.08079 | 14.68688 | 40103 ft | 473 kts | 292° |
| 2026-04-19 02:43 | 48.10538 | 14.59601 | 40102 ft | 473 kts | 292° |
| 2026-04-19 02:43 | 48.12999 | 14.50475 | 40103 ft | 473 kts | 291° |
| 2026-04-19 02:44 | 48.15456 | 14.41323 | 40100 ft | 473 kts | 291° |
| 2026-04-19 02:44 | 48.17907 | 14.32160 | 40102 ft | 474 kts | 291° |
| 2026-04-19 02:45 | 48.20352 | 14.22984 | 40101 ft | 473 kts | 291° |
| 2026-04-19 02:45 | 48.22789 | 14.13800 | 40104 ft | 474 kts | 291° |
| 2026-04-19 02:46 | 48.25206 | 14.04656 | 40105 ft | 474 kts | 291° |
| 2026-04-19 02:46 | 48.27621 | 13.95482 | 40099 ft | 473 kts | 291° |
| 2026-04-19 02:47 | 48.30040 | 13.86258 | 40099 ft | 474 kts | 291° |
| 2026-04-19 02:47 | 48.32450 | 13.77030 | 40093 ft | 474 kts | 291° |
| 2026-04-19 02:48 | 48.34841 | 13.67838 | 40072 ft | 474 kts | 290° |
| 2026-04-19 02:48 | 48.37244 | 13.58563 | 40073 ft | 475 kts | 290° |
| 2026-04-19 02:49 | 48.39641 | 13.49275 | 40085 ft | 475 kts | 290° |
| 2026-04-19 02:49 | 48.42011 | 13.40053 | 40088 ft | 476 kts | 290° |
| 2026-04-19 02:50 | 48.44402 | 13.30751 | 40090 ft | 476 kts | 290° |
| 2026-04-19 02:51 | 48.48088 | 13.16837 | 40070 ft | 476 kts | 291° |
| 2026-04-19 02:51 | 48.50533 | 13.07562 | 40066 ft | 476 kts | 291° |
| 2026-04-19 02:52 | 48.52969 | 12.98260 | 40072 ft | 477 kts | 290° |
| 2026-04-19 02:52 | 48.55379 | 12.89016 | 40072 ft | 476 kts | 290° |
| 2026-04-19 02:53 | 48.57798 | 12.79701 | 40066 ft | 477 kts | 290° |
| 2026-04-19 02:53 | 48.60208 | 12.70384 | 40063 ft | 477 kts | 290° |
| 2026-04-19 02:54 | 48.62615 | 12.61037 | 40068 ft | 477 kts | 290° |
| 2026-04-19 02:54 | 48.65013 | 12.51688 | 40067 ft | 477 kts | 290° |
| 2026-04-19 02:55 | 48.67404 | 12.42330 | 40064 ft | 477 kts | 290° |
| 2026-04-19 02:55 | 48.69769 | 12.33035 | 40060 ft | 477 kts | 290° |
| 2026-04-19 02:56 | 48.72144 | 12.23663 | 40056 ft | 476 kts | 290° |
| 2026-04-19 02:56 | 48.74391 | 12.14232 | 40056 ft | 476 kts | 285° |
| 2026-04-19 02:57 | 48.75834 | 12.04466 | 40059 ft | 475 kts | 278° |
| 2026-04-19 02:57 | 48.76888 | 11.94585 | 40062 ft | 475 kts | 279° |
| 2026-04-19 02:58 | 48.77966 | 11.84701 | 40066 ft | 475 kts | 278° |
| 2026-04-19 02:58 | 48.79023 | 11.74801 | 40073 ft | 475 kts | 278° |
| 2026-04-19 02:59 | 48.80066 | 11.64912 | 40074 ft | 475 kts | 278° |
| 2026-04-19 02:59 | 48.81097 | 11.55014 | 40075 ft | 475 kts | 278° |
| 2026-04-19 03:00 | 48.82116 | 11.45123 | 40076 ft | 474 kts | 278° |
| 2026-04-19 03:00 | 48.83122 | 11.35281 | 40073 ft | 474 kts | 278° |
| 2026-04-19 03:01 | 48.84612 | 11.25543 | 40076 ft | 476 kts | 291° |
| 2026-04-19 03:01 | 48.88132 | 11.17003 | 40075 ft | 482 kts | 310° |
| 2026-04-19 03:02 | 48.93070 | 11.10023 | 40077 ft | 486 kts | 315° |
| 2026-04-19 03:02 | 48.98037 | 11.03066 | 40083 ft | 485 kts | 314° |
| 2026-04-19 03:03 | 49.02994 | 10.96095 | 40090 ft | 485 kts | 314° |
| 2026-04-19 03:03 | 49.07953 | 10.89112 | 40086 ft | 485 kts | 314° |
| 2026-04-19 03:04 | 49.12857 | 10.82188 | 40089 ft | 482 kts | 314° |
| 2026-04-19 03:04 | 49.15308 | 10.78718 | 39975 ft | 479 kts | 314° |
| 2026-04-19 03:04 | 49.17741 | 10.75268 | 39476 ft | 476 kts | 314° |
| 2026-04-19 03:04 | 49.20167 | 10.71823 | 38827 ft | 475 kts | 313° |
| 2026-04-19 03:05 | 49.22519 | 10.68277 | 37959 ft | 473 kts | 311° |
| 2026-04-19 03:05 | 49.24797 | 10.64640 | 37043 ft | 471 kts | 310° |
| 2026-04-19 03:05 | 49.27030 | 10.61041 | 36130 ft | 471 kts | 309° |
| 2026-04-19 03:05 | 49.29294 | 10.57411 | 35201 ft | 471 kts | 309° |
| 2026-04-19 03:06 | 49.31563 | 10.53798 | 34115 ft | 469 kts | 309° |
| 2026-04-19 03:06 | 49.33831 | 10.50197 | 32736 ft | 468 kts | 309° |
| 2026-04-19 03:06 | 49.36014 | 10.46552 | 31627 ft | 459 kts | 304° |
| 2026-04-19 03:06 | 49.37890 | 10.42691 | 30638 ft | 447 kts | 300° |
| 2026-04-19 03:07 | 49.39651 | 10.38773 | 29589 ft | 441 kts | 301° |
| 2026-04-19 03:07 | 49.41401 | 10.34948 | 28529 ft | 434 kts | 301° |
| 2026-04-19 03:07 | 49.43123 | 10.31193 | 27511 ft | 427 kts | 301° |
| 2026-04-19 03:07 | 49.44815 | 10.27493 | 26751 ft | 420 kts | 301° |
| 2026-04-19 03:08 | 49.46476 | 10.23850 | 26111 ft | 413 kts | 301° |
| 2026-04-19 03:08 | 49.48112 | 10.20250 | 25493 ft | 407 kts | 301° |
| 2026-04-19 03:08 | 49.49717 | 10.16710 | 24879 ft | 401 kts | 301° |
| 2026-04-19 03:08 | 49.51296 | 10.13223 | 24285 ft | 395 kts | 301° |
| 2026-04-19 03:09 | 49.52856 | 10.09771 | 23735 ft | 389 kts | 301° |
| 2026-04-19 03:09 | 49.54386 | 10.06386 | 23344 ft | 379 kts | 300° |
| 2026-04-19 03:09 | 49.55876 | 10.03083 | 22988 ft | 373 kts | 300° |
| 2026-04-19 03:09 | 49.57355 | 9.99795 | 22637 ft | 373 kts | 300° |
| 2026-04-19 03:10 | 49.58811 | 9.96554 | 22304 ft | 372 kts | 300° |
| 2026-04-19 03:10 | 49.60282 | 9.93277 | 21951 ft | 371 kts | 300° |
| 2026-04-19 03:10 | 49.61746 | 9.90012 | 21604 ft | 369 kts | 300° |
| 2026-04-19 03:10 | 49.63201 | 9.86766 | 21267 ft | 368 kts | 300° |
| 2026-04-19 03:11 | 49.64652 | 9.83524 | 20937 ft | 366 kts | 301° |
| 2026-04-19 03:11 | 49.66094 | 9.80297 | 20603 ft | 364 kts | 301° |
| 2026-04-19 03:11 | 49.67532 | 9.77077 | 20284 ft | 363 kts | 301° |
| 2026-04-19 03:11 | 49.68963 | 9.73868 | 19915 ft | 362 kts | 301° |
| 2026-04-19 03:12 | 49.70393 | 9.70657 | 19316 ft | 362 kts | 301° |
| 2026-04-19 03:12 | 49.71820 | 9.67449 | 18675 ft | 361 kts | 301° |
| 2026-04-19 03:12 | 49.73236 | 9.64260 | 17990 ft | 359 kts | 301° |
| 2026-04-19 03:12 | 49.74647 | 9.61082 | 17273 ft | 357 kts | 301° |
| 2026-04-19 03:13 | 49.76048 | 9.57923 | 16579 ft | 355 kts | 301° |
| 2026-04-19 03:13 | 49.77433 | 9.54797 | 16149 ft | 348 kts | 301° |
| 2026-04-19 03:13 | 49.78793 | 9.51723 | 15569 ft | 345 kts | 301° |
| 2026-04-19 03:13 | 49.80143 | 9.48666 | 14944 ft | 342 kts | 301° |
| 2026-04-19 03:14 | 49.81481 | 9.45633 | 14343 ft | 340 kts | 301° |
| 2026-04-19 03:14 | 49.82790 | 9.42662 | 13755 ft | 337 kts | 302° |
| 2026-04-19 03:14 | 49.84106 | 9.39671 | 13084 ft | 335 kts | 302° |
| 2026-04-19 03:14 | 49.85480 | 9.36762 | 12428 ft | 334 kts | 309° |
| 2026-04-19 03:15 | 49.87210 | 9.34352 | 11783 ft | 336 kts | 322° |
| 2026-04-19 03:15 | 49.89252 | 9.32588 | 11164 ft | 336 kts | 332° |
| 2026-04-19 03:15 | 49.91372 | 9.31091 | 10550 ft | 334 kts | 332° |
| 2026-04-19 03:15 | 49.93474 | 9.29564 | 9942 ft | 332 kts | 332° |
| 2026-04-19 03:16 | 49.95544 | 9.28047 | 9442 ft | 326 kts | 332° |
| 2026-04-19 03:16 | 49.97568 | 9.26563 | 9100 ft | 316 kts | 332° |
| 2026-04-19 03:16 | 49.99524 | 9.25129 | 8761 ft | 307 kts | 332° |
| 2026-04-19 03:16 | 50.01434 | 9.23727 | 8431 ft | 299 kts | 332° |
| 2026-04-19 03:17 | 50.03266 | 9.22383 | 8098 ft | 292 kts | 332° |
| 2026-04-19 03:17 | 50.05089 | 9.21043 | 7766 ft | 286 kts | 332° |
| 2026-04-19 03:17 | 50.06869 | 9.19733 | 7549 ft | 281 kts | 332° |
| 2026-04-19 03:17 | 50.08624 | 9.18441 | 7382 ft | 278 kts | 332° |
| 2026-04-19 03:18 | 50.10356 | 9.17165 | 7219 ft | 274 kts | 332° |
| 2026-04-19 03:18 | 50.12090 | 9.15884 | 7042 ft | 277 kts | 332° |
| 2026-04-19 03:18 | 50.13827 | 9.14600 | 6861 ft | 276 kts | 332° |
| 2026-04-19 03:18 | 50.15354 | 9.12870 | 6700 ft | 271 kts | 308° |
| 2026-04-19 03:19 | 50.16186 | 9.10296 | 6551 ft | 267 kts | 279° |
| 2026-04-19 03:19 | 50.16141 | 9.07442 | 6418 ft | 264 kts | 258° |
| 2026-04-19 03:19 | 50.15616 | 9.04698 | 6269 ft | 263 kts | 249° |
| 2026-04-19 03:19 | 50.14953 | 9.02099 | 6104 ft | 251 kts | 248° |
| 2026-04-19 03:20 | 50.14351 | 8.99607 | 5867 ft | 242 kts | 249° |
| 2026-04-19 03:20 | 50.13759 | 8.97168 | 5542 ft | 238 kts | 249° |
| 2026-04-19 03:20 | 50.13177 | 8.94764 | 5229 ft | 235 kts | 249° |
| 2026-04-19 03:20 | 50.12605 | 8.92396 | 4925 ft | 233 kts | 249° |
| 2026-04-19 03:21 | 50.12037 | 8.90044 | 4601 ft | 230 kts | 249° |
| 2026-04-19 03:21 | 50.11488 | 8.87770 | 4312 ft | 219 kts | 249° |
| 2026-04-19 03:21 | 50.10993 | 8.85714 | 4032 ft | 187 kts | 249° |
| 2026-04-19 03:21 | 50.10558 | 8.83912 | 3789 ft | 171 kts | 249° |
| 2026-04-19 03:22 | 50.10148 | 8.82210 | 3563 ft | 167 kts | 249° |
| 2026-04-19 03:22 | 50.09740 | 8.80513 | 3336 ft | 168 kts | 249° |
| 2026-04-19 03:22 | 50.09331 | 8.78812 | 3115 ft | 168 kts | 249° |
| 2026-04-19 03:22 | 50.08922 | 8.77113 | 2891 ft | 168 kts | 249° |
| 2026-04-19 03:23 | 50.08514 | 8.75413 | 2668 ft | 168 kts | 249° |
| 2026-04-19 03:23 | 50.08105 | 8.73708 | 2449 ft | 164 kts | 249° |
| 2026-04-19 03:23 | 50.07720 | 8.72101 | 2212 ft | 152 kts | 249° |
| 2026-04-19 03:23 | 50.07362 | 8.70610 | 2030 ft | 143 kts | 250° |
| 2026-04-19 03:24 | 50.07021 | 8.69188 | 1838 ft | 142 kts | 250° |
| 2026-04-19 03:24 | 50.06678 | 8.67756 | 1651 ft | 141 kts | 250° |
| 2026-04-19 03:24 | 50.06337 | 8.66331 | 1452 ft | 140 kts | 250° |
| 2026-04-19 03:24 | 50.06110 | 8.65379 | 1319 ft | 138 kts | 250° |
| 2026-04-19 03:25 | 50.05664 | 8.63532 | 1058 ft | 135 kts | 251° |
| 2026-04-19 03:25 | 50.05329 | 8.62158 | 880 ft | 135 kts | 251° |
| 2026-04-19 03:25 | 50.05007 | 8.60795 | 698 ft | 136 kts | 253° |
| 2026-04-19 03:25 | 50.04674 | 8.59424 | 516 ft | 135 kts | 254° |
| 2026-04-19 03:26 | 50.04355 | 8.58070 | 373 ft | 126 kts | 252° |
| 2026-04-19 03:26 | 50.04121 | 8.57053 | 373 ft | 67 kts | 250° |
| 2026-04-19 03:26 | 50.04014 | 8.56599 | 366 ft | 40 kts | 250° |
| 2026-04-19 03:26 | 50.04009 | 8.56242 | 363 ft | 15 kts | 278° |
| 2026-04-19 03:27 | 50.04026 | 8.56082 | 354 ft | 13 kts | 291° |
| 2026-04-19 03:27 | 50.04060 | 8.56003 | 361 ft | 13 kts | 320° |
| 2026-04-19 03:27 | 50.04145 | 8.55942 | 362 ft | 15 kts | 340° |
| 2026-04-19 03:27 | 50.04222 | 8.55931 | 361 ft | 10 kts | 30° |
| 2026-04-19 03:28 | 50.04285 | 8.55955 | 363 ft | 10 kts | 349° |
| 2026-04-19 03:28 | 50.04349 | 8.55927 | 367 ft | 1 kts | 339° |
| 2026-04-19 03:28 | 50.04370 | 8.55915 | 369 ft | 4 kts | 347° |
| 2026-04-19 03:28 | 50.04408 | 8.55910 | 364 ft | 5 kts | 1° |
| 2026-04-19 03:29 | 50.04437 | 8.55916 | 363 ft | 4 kts | 14° |
| 2026-04-19 03:29 | 50.04487 | 8.55937 | 367 ft | 9 kts | 16° |
| 2026-04-19 03:29 | 50.04540 | 8.55968 | 365 ft | 6 kts | 41° |
| 2026-04-19 03:29 | 50.04564 | 8.56013 | 363 ft | 5 kts | 59° |
| 2026-04-19 03:30 | 50.04576 | 8.56057 | 369 ft | 4 kts | 69° |
| 2026-04-19 03:30 | 50.04587 | 8.56102 | 368 ft | 4 kts | 69° |
| 2026-04-19 03:30 | 50.04598 | 8.56146 | 365 ft | 4 kts | 69° |
| 2026-04-19 03:30 | 50.04608 | 8.56190 | 368 ft | 4 kts | 70° |
| 2026-04-19 03:31 | 50.04619 | 8.56235 | 367 ft | 4 kts | 70° |
| 2026-04-19 03:31 | 50.04629 | 8.56279 | 365 ft | 4 kts | 70° |
| 2026-04-19 03:31 | 50.04641 | 8.56309 | 366 ft | 2 kts | 43° |
| 2026-04-19 03:31 | 50.04658 | 8.56325 | 367 ft | 0 kts | 16° |
| 2026-04-19 03:32 | 50.04664 | 8.56326 | 366 ft | 1 kts | 351° |
| 2026-04-19 03:32 | 50.04674 | 8.56318 | 366 ft | 4 kts | 313° |
| 2026-04-19 03:32 | 50.04686 | 8.56299 | 368 ft | 2 kts | 328° |
| 2026-04-19 03:32 | 50.04702 | 8.56289 | 368 ft | 2 kts | 339° |
| 2026-04-19 03:33 | 50.04716 | 8.56281 | 369 ft | 0 kts | 340° |
| 2026-04-19 03:33 | 50.04717 | 8.56280 | 369 ft | 0 kts | 340° |